Time,TemperatureF,DewpointF,PressureIn,WindDirection,WindDirectionDegrees,WindSpeedMPH,WindSpeedGustMPH,Humidity,HourlyPrecipIn,Conditions,Clouds,dailyrainin,SoftwareType,DateUTC
2013-01-09 00:00:00,36.3,30.7,30.41,ESE,103,0.0,0.0,80,0.00,,,0.18,Wunderground v.1.15,2013-01-09 05:00:00,
2013-01-09 00:02:00,36.6,31.0,30.41,ESE,103,0.0,0.0,80,0.00,,,0.18,Wunderground v.1.15,2013-01-09 05:02:00,
2013-01-09 00:04:00,36.7,30.8,30.41,ESE,103,0.0,0.0,79,0.00,,,0.18,Wunderground v.1.15,2013-01-09 05:04:00,
2013-01-09 00:05:00,36.7,30.8,30.41,ESE,103,0.0,0.0,79,0.00,,,0.18,Wunderground v.1.15,2013-01-09 05:05:00,
2013-01-09 00:08:00,36.7,30.8,30.41,ESE,103,0.0,0.0,79,0.00,,,0.18,Wunderground v.1.15,2013-01-09 05:08:00,
2013-01-09 00:14:00,36.5,30.6,30.41,ESE,103,0.0,0.0,79,0.00,,,0.18,Wunderground v.1.15,2013-01-09 05:14:00,
2013-01-09 00:15:00,36.5,30.6,30.41,ESE,103,0.0,0.0,79,0.00,,,0.18,Wunderground v.1.15,2013-01-09 05:15:00,
2013-01-09 00:19:00,36.5,30.6,30.41,ESE,103,0.0,0.0,79,0.00,,,0.18,Wunderground v.1.15,2013-01-09 05:19:00,
2013-01-09 00:20:00,36.4,30.5,30.40,ESE,103,0.0,0.0,79,0.00,,,0.18,Wunderground v.1.15,2013-01-09 05:20:00,
2013-01-09 00:22:00,36.3,30.4,30.40,ESE,103,0.0,0.0,79,0.00,,,0.18,Wunderground v.1.15,2013-01-09 05:22:00,
2013-01-09 00:24:00,36.3,30.7,30.40,ESE,103,0.0,0.0,80,0.00,,,0.18,Wunderground v.1.15,2013-01-09 05:24:00,
2013-01-09 00:27:00,36.3,30.7,30.40,ESE,103,0.0,0.0,80,0.00,,,0.18,Wunderground v.1.15,2013-01-09 05:27:00,
2013-01-09 00:28:00,36.4,30.8,30.40,ESE,103,0.0,0.0,80,0.00,,,0.18,Wunderground v.1.15,2013-01-09 05:28:00,
2013-01-09 00:29:00,36.4,30.8,30.40,ESE,103,0.0,0.0,80,0.00,,,0.18,Wunderground v.1.15,2013-01-09 05:29:00,
2013-01-09 00:31:00,36.6,31.0,30.40,ESE,103,0.0,1.0,80,0.00,,,0.00,Wunderground v.1.15,2013-01-09 05:31:00,
2013-01-09 00:34:00,36.7,31.1,30.40,ESE,103,0.0,1.0,80,0.00,,,0.00,Wunderground v.1.15,2013-01-09 05:34:00,
2013-01-09 00:38:00,36.9,31.6,30.40,ESE,103,0.0,1.0,81,0.00,,,0.00,Wunderground v.1.15,2013-01-09 05:38:00,
2013-01-09 00:40:00,36.8,31.5,30.40,ESE,103,0.0,0.0,81,0.00,,,0.00,Wunderground v.1.15,2013-01-09 05:40:00,
2013-01-09 00:43:00,36.8,31.5,30.40,ESE,103,0.0,0.0,81,0.00,,,0.00,Wunderground v.1.15,2013-01-09 05:43:00,
2013-01-09 00:45:00,36.7,31.4,30.40,ESE,103,0.0,0.0,81,0.00,,,0.00,Wunderground v.1.15,2013-01-09 05:45:00,
2013-01-09 00:46:00,36.8,31.8,30.39,SE,133,0.0,0.0,82,0.00,,,0.00,Wunderground v.1.15,2013-01-09 05:46:00,
2013-01-09 00:48:00,37.0,32.0,30.39,SE,134,0.0,0.0,82,0.00,,,0.00,Wunderground v.1.15,2013-01-09 05:48:00,
2013-01-09 00:52:00,37.2,32.2,30.39,SE,134,0.0,0.0,82,0.00,,,0.00,Wunderground v.1.15,2013-01-09 05:52:00,
2013-01-09 00:53:00,37.3,32.0,30.39,SE,134,0.0,0.0,81,0.00,,,0.00,Wunderground v.1.15,2013-01-09 05:53:00,
2013-01-09 00:56:00,37.3,32.3,30.39,SE,139,0.0,0.0,82,0.00,,,0.00,Wunderground v.1.15,2013-01-09 05:56:00,
2013-01-09 00:58:00,37.4,32.4,30.39,SE,139,0.0,0.0,82,0.00,,,0.00,Wunderground v.1.15,2013-01-09 05:58:00,
2013-01-09 00:59:00,37.5,32.5,30.39,SE,139,0.0,0.0,82,0.00,,,0.00,Wunderground v.1.15,2013-01-09 05:59:00,
2013-01-09 01:03:00,37.6,32.3,30.40,SW,222,0.0,2.0,81,0.00,,,0.00,Wunderground v.1.15,2013-01-09 06:03:00,
2013-01-09 01:04:00,37.6,32.3,30.40,SW,222,0.0,2.0,81,0.00,,,0.00,Wunderground v.1.15,2013-01-09 06:04:00,
2013-01-09 01:07:00,37.8,32.5,30.39,SW,222,0.0,2.0,81,0.00,,,0.00,Wunderground v.1.15,2013-01-09 06:07:00,
2013-01-09 01:09:00,37.8,32.5,30.39,SW,222,0.0,2.0,81,0.00,,,0.00,Wunderground v.1.15,2013-01-09 06:09:00,
2013-01-09 01:10:00,37.8,32.5,30.39,SW,222,0.0,0.0,81,0.00,,,0.00,Wunderground v.1.15,2013-01-09 06:10:00,
2013-01-09 01:13:00,37.8,32.5,30.39,SW,222,0.0,0.0,81,0.00,,,0.00,Wunderground v.1.15,2013-01-09 06:13:00,
2013-01-09 01:17:00,37.9,32.6,30.39,SW,234,0.0,0.0,81,0.00,,,0.00,Wunderground v.1.15,2013-01-09 06:17:00,
2013-01-09 01:18:00,37.8,32.5,30.39,SW,234,0.0,0.0,81,0.00,,,0.00,Wunderground v.1.15,2013-01-09 06:18:00,
2013-01-09 01:22:00,37.9,32.3,30.40,SW,234,0.0,0.0,80,0.00,,,0.00,Wunderground v.1.15,2013-01-09 06:22:00,
2013-01-09 01:24:00,37.9,32.3,30.40,SW,234,0.0,0.0,80,0.00,,,0.00,Wunderground v.1.15,2013-01-09 06:24:00,
2013-01-09 01:28:00,37.7,32.1,30.39,SW,234,0.0,0.0,80,0.00,,,0.00,Wunderground v.1.15,2013-01-09 06:28:00,
2013-01-09 01:31:00,37.7,32.4,30.39,SW,234,0.0,1.0,81,0.00,,,0.00,Wunderground v.1.15,2013-01-09 06:31:00,
2013-01-09 01:32:00,37.7,32.4,30.40,SW,234,0.0,1.0,81,0.00,,,0.00,Wunderground v.1.15,2013-01-09 06:32:00,
2013-01-09 01:33:00,37.7,32.1,30.40,SW,234,0.0,1.0,80,0.00,,,0.00,Wunderground v.1.15,2013-01-09 06:33:00,
2013-01-09 01:39:00,37.7,32.1,30.39,SW,234,0.0,1.0,80,0.00,,,0.00,Wunderground v.1.15,2013-01-09 06:39:00,
2013-01-09 01:41:00,37.4,31.8,30.39,SW,234,0.0,0.0,80,0.00,,,0.00,Wunderground v.1.15,2013-01-09 06:41:00,
2013-01-09 01:45:00,37.3,31.7,30.39,SW,234,0.0,0.0,80,0.00,,,0.00,Wunderground v.1.15,2013-01-09 06:45:00,
2013-01-09 01:48:00,37.1,31.8,30.39,SW,234,0.0,0.0,81,0.00,,,0.00,Wunderground v.1.15,2013-01-09 06:48:00,
2013-01-09 01:49:00,37.1,31.8,30.39,SW,234,0.0,0.0,81,0.00,,,0.00,Wunderground v.1.15,2013-01-09 06:49:00,
2013-01-09 01:51:00,37.1,31.8,30.39,SW,234,0.0,0.0,81,0.00,,,0.00,Wunderground v.1.15,2013-01-09 06:51:00,
2013-01-09 01:53:00,37.1,31.8,30.39,SW,234,0.0,0.0,81,0.00,,,0.00,Wunderground v.1.15,2013-01-09 06:53:00,
2013-01-09 01:54:00,37.0,31.7,30.39,SW,234,0.0,0.0,81,0.00,,,0.00,Wunderground v.1.15,2013-01-09 06:54:00,
2013-01-09 01:57:00,37.0,31.7,30.39,SW,234,0.0,0.0,81,0.00,,,0.00,Wunderground v.1.15,2013-01-09 06:57:00,
2013-01-09 01:59:00,37.1,31.8,30.38,SW,229,0.0,0.0,81,0.00,,,0.00,Wunderground v.1.15,2013-01-09 06:59:00,
2013-01-09 02:00:00,37.1,31.8,30.38,SW,229,0.0,0.0,81,0.00,,,0.00,Wunderground v.1.15,2013-01-09 07:00:00,
2013-01-09 02:03:00,37.3,32.0,30.38,SW,229,0.0,2.0,81,0.00,,,0.00,Wunderground v.1.15,2013-01-09 07:03:00,
2013-01-09 02:04:00,37.4,32.1,30.38,SW,229,0.0,2.0,81,0.00,,,0.00,Wunderground v.1.15,2013-01-09 07:04:00,
2013-01-09 02:06:00,37.4,32.1,30.38,SW,228,0.0,2.0,81,0.00,,,0.00,Wunderground v.1.15,2013-01-09 07:06:00,
2013-01-09 02:08:00,37.5,32.2,30.38,SW,226,0.0,2.0,81,0.00,,,0.00,Wunderground v.1.15,2013-01-09 07:08:00,
2013-01-09 02:09:00,37.5,32.2,30.38,SW,226,0.0,2.0,81,0.00,,,0.00,Wunderground v.1.15,2013-01-09 07:09:00,
2013-01-09 02:14:00,37.7,32.1,30.38,SW,214,0.0,0.0,80,0.00,,,0.00,Wunderground v.1.15,2013-01-09 07:14:00,
2013-01-09 02:15:00,37.7,32.1,30.38,SW,214,0.0,0.0,80,0.00,,,0.00,Wunderground v.1.15,2013-01-09 07:15:00,
2013-01-09 02:18:00,37.9,32.3,30.38,SW,214,0.0,0.0,80,0.00,,,0.00,Wunderground v.1.15,2013-01-09 07:18:00,
2013-01-09 02:20:00,37.9,32.3,30.38,SW,214,0.0,0.0,80,0.00,,,0.00,Wunderground v.1.15,2013-01-09 07:20:00,
2013-01-09 02:23:00,38.1,32.5,30.38,WSW,237,0.0,0.0,80,0.00,,,0.00,Wunderground v.1.15,2013-01-09 07:23:00,
2013-01-09 02:26:00,38.2,32.3,30.38,WSW,237,0.0,0.0,79,0.00,,,0.00,Wunderground v.1.15,2013-01-09 07:26:00,
2013-01-09 02:27:00,38.2,32.3,30.38,WSW,237,0.0,0.0,79,0.00,,,0.00,Wunderground v.1.15,2013-01-09 07:27:00,
2013-01-09 02:30:00,38.2,32.3,30.38,WSW,237,0.0,0.0,79,0.00,,,0.00,Wunderground v.1.15,2013-01-09 07:30:00,
2013-01-09 02:31:00,38.2,32.3,30.38,WSW,237,0.0,0.0,79,0.00,,,0.00,Wunderground v.1.15,2013-01-09 07:31:00,
2013-01-09 02:33:00,38.1,32.2,30.38,WSW,237,0.0,0.0,79,0.00,,,0.00,Wunderground v.1.15,2013-01-09 07:33:00,
2013-01-09 02:34:00,38.1,32.2,30.38,WSW,237,0.0,0.0,79,0.00,,,0.00,Wunderground v.1.15,2013-01-09 07:34:00,
2013-01-09 02:35:00,38.1,32.2,30.38,WSW,237,0.0,0.0,79,0.00,,,0.00,Wunderground v.1.15,2013-01-09 07:35:00,
2013-01-09 02:40:00,38.0,32.1,30.38,SW,236,0.0,0.0,79,0.00,,,0.00,Wunderground v.1.15,2013-01-09 07:40:00,
2013-01-09 02:41:00,37.9,32.0,30.38,SW,236,0.0,0.0,79,0.00,,,0.00,Wunderground v.1.15,2013-01-09 07:41:00,
2013-01-09 02:43:00,37.8,31.9,30.38,SW,236,0.0,0.0,79,0.00,,,0.00,Wunderground v.1.15,2013-01-09 07:43:00,
2013-01-09 02:45:00,37.8,32.2,30.38,SW,236,0.0,0.0,80,0.00,,,0.00,Wunderground v.1.15,2013-01-09 07:45:00,
2013-01-09 02:47:00,37.8,31.9,30.38,SW,236,0.0,0.0,79,0.00,,,0.00,Wunderground v.1.15,2013-01-09 07:47:00,
2013-01-09 02:48:00,37.7,31.8,30.38,SW,236,0.0,0.0,79,0.00,,,0.00,Wunderground v.1.15,2013-01-09 07:48:00,
2013-01-09 02:50:00,37.7,31.8,30.38,SW,236,0.0,0.0,79,0.00,,,0.00,Wunderground v.1.15,2013-01-09 07:50:00,
2013-01-09 02:53:00,37.6,31.7,30.38,SW,232,0.0,0.0,79,0.00,,,0.00,Wunderground v.1.15,2013-01-09 07:53:00,
2013-01-09 02:54:00,37.6,31.7,30.38,SW,232,0.0,0.0,79,0.00,,,0.00,Wunderground v.1.15,2013-01-09 07:54:00,
2013-01-09 02:55:00,37.6,32.0,30.38,SW,232,0.0,0.0,80,0.00,,,0.00,Wunderground v.1.15,2013-01-09 07:55:00,
2013-01-09 02:57:00,37.5,31.6,30.38,South,170,0.0,0.0,79,0.00,,,0.00,Wunderground v.1.15,2013-01-09 07:57:00,
2013-01-09 03:01:00,37.6,32.0,30.38,South,170,0.0,1.0,80,0.00,,,0.00,Wunderground v.1.15,2013-01-09 08:01:00,
2013-01-09 03:03:00,37.7,31.8,30.38,South,169,0.0,1.0,79,0.00,,,0.00,Wunderground v.1.15,2013-01-09 08:03:00,
2013-01-09 03:05:00,37.7,31.8,30.38,South,169,0.0,1.0,79,0.00,,,0.00,Wunderground v.1.15,2013-01-09 08:05:00,
2013-01-09 03:06:00,37.7,31.8,30.38,South,169,0.0,1.0,79,0.00,,,0.00,Wunderground v.1.15,2013-01-09 08:06:00,
2013-01-09 03:09:00,37.8,31.6,30.38,South,169,0.0,1.0,78,0.00,,,0.00,Wunderground v.1.15,2013-01-09 08:09:00,
2013-01-09 03:10:00,37.8,31.6,30.38,South,170,0.0,0.0,78,0.00,,,0.00,Wunderground v.1.15,2013-01-09 08:10:00,
2013-01-09 03:12:00,37.9,31.7,30.38,South,169,0.0,0.0,78,0.00,,,0.00,Wunderground v.1.15,2013-01-09 08:12:00,
2013-01-09 03:14:00,38.1,32.2,30.38,South,170,0.0,0.0,79,0.00,,,0.00,Wunderground v.1.15,2013-01-09 08:14:00,
2013-01-09 03:15:00,38.2,31.9,30.38,South,170,0.0,0.0,78,0.00,,,0.00,Wunderground v.1.15,2013-01-09 08:15:00,
2013-01-09 03:17:00,38.2,31.9,30.38,South,170,0.0,0.0,78,0.00,,,0.00,Wunderground v.1.15,2013-01-09 08:17:00,
2013-01-09 03:20:00,38.3,32.0,30.38,South,169,0.0,0.0,78,0.00,,,0.00,Wunderground v.1.15,2013-01-09 08:20:00,
2013-01-09 03:21:00,38.3,32.0,30.38,South,170,0.0,0.0,78,0.00,,,0.00,Wunderground v.1.15,2013-01-09 08:21:00,
2013-01-09 03:22:00,38.3,32.0,30.37,South,171,0.0,0.0,78,0.00,,,0.00,Wunderground v.1.15,2013-01-09 08:22:00,
2013-01-09 03:24:00,38.3,32.0,30.38,South,180,0.0,0.0,78,0.00,,,0.00,Wunderground v.1.15,2013-01-09 08:24:00,
2013-01-09 03:28:00,38.4,32.1,30.37,SSW,192,0.0,0.0,78,0.00,,,0.00,Wunderground v.1.15,2013-01-09 08:28:00,
2013-01-09 03:30:00,38.3,32.0,30.37,SSW,192,0.0,0.0,78,0.00,,,0.00,Wunderground v.1.15,2013-01-09 08:30:00,
2013-01-09 03:32:00,38.3,32.0,30.37,South,191,0.0,2.0,78,0.00,,,0.00,Wunderground v.1.15,2013-01-09 08:32:00,
2013-01-09 03:33:00,38.3,32.0,30.37,SSW,198,0.0,2.0,78,0.00,,,0.00,Wunderground v.1.15,2013-01-09 08:33:00,
2013-01-09 03:34:00,38.3,32.0,30.37,SSW,198,0.0,2.0,78,0.00,,,0.00,Wunderground v.1.15,2013-01-09 08:34:00,
2013-01-09 03:37:00,38.4,32.1,30.37,SSW,198,0.0,2.0,78,0.00,,,0.00,Wunderground v.1.15,2013-01-09 08:37:00,
2013-01-09 03:39:00,38.4,32.1,30.37,SSW,198,0.0,2.0,78,0.00,,,0.00,Wunderground v.1.15,2013-01-09 08:39:00,
2013-01-09 03:40:00,38.4,32.1,30.37,SSW,196,0.0,0.0,78,0.00,,,0.00,Wunderground v.1.15,2013-01-09 08:40:00,
2013-01-09 03:44:00,38.3,32.0,30.38,SSW,209,0.0,0.0,78,0.00,,,0.00,Wunderground v.1.15,2013-01-09 08:44:00,
2013-01-09 03:46:00,38.4,32.1,30.38,SSW,209,0.0,0.0,78,0.00,,,0.00,Wunderground v.1.15,2013-01-09 08:46:00,
2013-01-09 03:49:00,38.5,32.2,30.38,SSW,209,0.0,0.0,78,0.00,,,0.00,Wunderground v.1.15,2013-01-09 08:49:00,
2013-01-09 03:50:00,38.5,32.2,30.38,SSW,213,0.0,0.0,78,0.00,,,0.00,Wunderground v.1.15,2013-01-09 08:50:00,
2013-01-09 03:54:00,38.6,32.3,30.37,WSW,244,0.0,0.0,78,0.00,,,0.00,Wunderground v.1.15,2013-01-09 08:54:00,
2013-01-09 03:56:00,38.7,32.4,30.37,WSW,244,0.0,0.0,78,0.00,,,0.00,Wunderground v.1.15,2013-01-09 08:56:00,
2013-01-09 04:00:00,38.6,32.3,30.37,WSW,244,0.0,1.0,78,0.00,,,0.00,Wunderground v.1.15,2013-01-09 09:00:00,
2013-01-09 04:01:00,38.7,32.4,30.37,WSW,244,0.0,1.0,78,0.00,,,0.00,Wunderground v.1.15,2013-01-09 09:01:00,
2013-01-09 04:03:00,38.6,32.3,30.37,WSW,244,0.0,1.0,78,0.00,,,0.00,Wunderground v.1.15,2013-01-09 09:03:00,
2013-01-09 04:05:00,38.7,32.4,30.37,WSW,245,0.0,1.0,78,0.00,,,0.00,Wunderground v.1.15,2013-01-09 09:05:00,
2013-01-09 04:09:00,38.8,32.5,30.37,WSW,250,0.0,1.0,78,0.00,,,0.00,Wunderground v.1.15,2013-01-09 09:09:00,
2013-01-09 04:10:00,38.9,32.6,30.37,WSW,250,0.0,0.0,78,0.00,,,0.00,Wunderground v.1.15,2013-01-09 09:10:00,
2013-01-09 04:11:00,38.9,32.6,30.37,WSW,250,0.0,0.0,78,0.00,,,0.00,Wunderground v.1.15,2013-01-09 09:11:00,
2013-01-09 04:14:00,38.8,32.5,30.37,WSW,250,0.0,0.0,78,0.00,,,0.00,Wunderground v.1.15,2013-01-09 09:14:00,
2013-01-09 04:15:00,38.8,32.5,30.37,WSW,250,0.0,0.0,78,0.00,,,0.00,Wunderground v.1.15,2013-01-09 09:15:00,
2013-01-09 04:16:00,38.8,32.8,30.37,WSW,250,0.0,0.0,79,0.00,,,0.00,Wunderground v.1.15,2013-01-09 09:16:00,
2013-01-09 04:18:00,38.9,32.9,30.37,WSW,250,0.0,0.0,79,0.00,,,0.00,Wunderground v.1.15,2013-01-09 09:18:00,
2013-01-09 04:20:00,39.0,33.0,30.37,WSW,251,0.0,0.0,79,0.00,,,0.00,Wunderground v.1.15,2013-01-09 09:20:00,
2013-01-09 04:25:00,39.3,33.0,30.37,WSW,244,0.0,0.0,78,0.00,,,0.00,Wunderground v.1.15,2013-01-09 09:25:00,
2013-01-09 04:26:00,39.3,33.0,30.37,WSW,244,0.0,0.0,78,0.00,,,0.00,Wunderground v.1.15,2013-01-09 09:26:00,
2013-01-09 04:27:00,39.3,33.0,30.37,WSW,244,0.0,0.0,78,0.00,,,0.00,Wunderground v.1.15,2013-01-09 09:27:00,
2013-01-09 04:28:00,39.3,33.0,30.38,WSW,244,0.0,0.0,78,0.00,,,0.00,Wunderground v.1.15,2013-01-09 09:28:00,
2013-01-09 04:31:00,39.4,33.1,30.38,WSW,246,0.0,1.0,78,0.00,,,0.00,Wunderground v.1.15,2013-01-09 09:31:00,
2013-01-09 04:32:00,39.4,33.1,30.38,WSW,246,0.0,1.0,78,0.00,,,0.00,Wunderground v.1.15,2013-01-09 09:32:00,
2013-01-09 04:35:00,39.4,33.1,30.38,WSW,246,0.0,1.0,78,0.00,,,0.00,Wunderground v.1.15,2013-01-09 09:35:00,
2013-01-09 04:37:00,39.4,33.1,30.37,WSW,245,0.0,1.0,78,0.00,,,0.00,Wunderground v.1.15,2013-01-09 09:37:00,
2013-01-09 04:40:00,39.3,33.0,30.37,WSW,246,0.0,0.0,78,0.00,,,0.00,Wunderground v.1.15,2013-01-09 09:40:00,
2013-01-09 04:42:00,39.2,32.9,30.37,WSW,245,0.0,0.0,78,0.00,,,0.00,Wunderground v.1.15,2013-01-09 09:42:00,
2013-01-09 04:44:00,39.0,32.7,30.37,WSW,245,0.0,0.0,78,0.00,,,0.00,Wunderground v.1.15,2013-01-09 09:44:00,
2013-01-09 04:45:00,38.9,32.6,30.37,WSW,245,0.0,0.0,78,0.00,,,0.00,Wunderground v.1.15,2013-01-09 09:45:00,
2013-01-09 04:47:00,38.6,32.3,30.37,WSW,246,0.0,0.0,78,0.00,,,0.00,Wunderground v.1.15,2013-01-09 09:47:00,
2013-01-09 04:51:00,38.3,32.4,30.36,WSW,246,0.0,0.0,79,0.00,,,0.00,Wunderground v.1.15,2013-01-09 09:51:00,
2013-01-09 04:52:00,38.2,32.3,30.36,WSW,246,0.0,0.0,79,0.00,,,0.00,Wunderground v.1.15,2013-01-09 09:52:00,
2013-01-09 04:53:00,38.2,32.6,30.36,WSW,246,0.0,0.0,80,0.00,,,0.00,Wunderground v.1.15,2013-01-09 09:53:00,
2013-01-09 04:55:00,38.2,32.6,30.36,WSW,246,0.0,0.0,80,0.00,,,0.00,Wunderground v.1.15,2013-01-09 09:55:00,
2013-01-09 04:56:00,38.2,32.6,30.37,WSW,246,0.0,0.0,80,0.00,,,0.00,Wunderground v.1.15,2013-01-09 09:56:00,
2013-01-09 04:58:00,38.2,32.6,30.37,WSW,246,0.0,0.0,80,0.00,,,0.00,Wunderground v.1.15,2013-01-09 09:58:00,
2013-01-09 04:59:00,38.2,32.6,30.37,WSW,246,0.0,0.0,80,0.00,,,0.00,Wunderground v.1.15,2013-01-09 09:59:00,
2013-01-09 05:02:00,38.3,32.7,30.37,WSW,246,0.0,2.0,80,0.00,,,0.00,Wunderground v.1.15,2013-01-09 10:02:00,
2013-01-09 05:03:00,38.3,32.7,30.37,WSW,246,0.0,2.0,80,0.00,,,0.00,Wunderground v.1.15,2013-01-09 10:03:00,
2013-01-09 05:05:00,38.3,32.7,30.36,WSW,246,0.0,2.0,80,0.00,,,0.00,Wunderground v.1.15,2013-01-09 10:05:00,
2013-01-09 05:07:00,38.3,32.7,30.36,WSW,246,0.0,2.0,80,0.00,,,0.00,Wunderground v.1.15,2013-01-09 10:07:00,
2013-01-09 05:11:00,38.4,32.8,30.36,WSW,246,0.0,0.0,80,0.00,,,0.00,Wunderground v.1.15,2013-01-09 10:11:00,
2013-01-09 05:12:00,38.3,32.7,30.36,WSW,246,0.0,0.0,80,0.00,,,0.00,Wunderground v.1.15,2013-01-09 10:12:00,
2013-01-09 05:14:00,38.3,32.7,30.36,WSW,246,0.0,0.0,80,0.00,,,0.00,Wunderground v.1.15,2013-01-09 10:14:00,
2013-01-09 05:17:00,38.2,32.6,30.36,WSW,246,0.0,0.0,80,0.00,,,0.00,Wunderground v.1.15,2013-01-09 10:17:00,
2013-01-09 05:18:00,38.2,32.6,30.36,WSW,246,0.0,0.0,80,0.00,,,0.00,Wunderground v.1.15,2013-01-09 10:18:00,
2013-01-09 05:20:00,38.1,32.5,30.36,WSW,246,0.0,0.0,80,0.00,,,0.00,Wunderground v.1.15,2013-01-09 10:20:00,
2013-01-09 05:22:00,38.1,32.5,30.36,WSW,246,0.0,0.0,80,0.00,,,0.00,Wunderground v.1.15,2013-01-09 10:22:00,
2013-01-09 05:24:00,38.0,32.4,30.36,WSW,246,0.0,0.0,80,0.00,,,0.00,Wunderground v.1.15,2013-01-09 10:24:00,
2013-01-09 05:25:00,37.9,32.3,30.36,WSW,246,0.0,0.0,80,0.00,,,0.00,Wunderground v.1.15,2013-01-09 10:25:00,
2013-01-09 05:26:00,37.9,32.3,30.36,WSW,246,0.0,0.0,80,0.00,,,0.00,Wunderground v.1.15,2013-01-09 10:26:00,
2013-01-09 05:32:00,37.8,32.5,30.36,WSW,246,0.0,0.0,81,0.00,,,0.00,Wunderground v.1.15,2013-01-09 10:32:00,
2013-01-09 05:35:00,37.7,32.4,30.36,WSW,248,0.0,0.0,81,0.00,,,0.00,Wunderground v.1.15,2013-01-09 10:35:00,
2013-01-09 05:37:00,37.7,32.4,30.36,WSW,248,0.0,0.0,81,0.00,,,0.00,Wunderground v.1.15,2013-01-09 10:37:00,
2013-01-09 05:41:00,37.7,32.4,30.36,WSW,248,0.0,0.0,81,0.00,,,0.00,Wunderground v.1.15,2013-01-09 10:41:00,
2013-01-09 05:43:00,37.6,32.3,30.36,WSW,248,0.0,0.0,81,0.00,,,0.00,Wunderground v.1.15,2013-01-09 10:43:00,
2013-01-09 05:45:00,37.6,32.3,30.36,WSW,247,0.0,0.0,81,0.00,,,0.00,Wunderground v.1.15,2013-01-09 10:45:00,
2013-01-09 05:49:00,37.6,32.3,30.36,WSW,247,0.0,0.0,81,0.00,,,0.00,Wunderground v.1.15,2013-01-09 10:49:00,
2013-01-09 05:51:00,37.5,32.2,30.36,WSW,247,0.0,0.0,81,0.00,,,0.00,Wunderground v.1.15,2013-01-09 10:51:00,
2013-01-09 05:53:00,37.5,32.5,30.36,WSW,247,0.0,0.0,82,0.00,,,0.00,Wunderground v.1.15,2013-01-09 10:53:00,
2013-01-09 05:55:00,37.5,32.5,30.36,WSW,247,0.0,0.0,82,0.00,,,0.00,Wunderground v.1.15,2013-01-09 10:55:00,
2013-01-09 05:59:00,37.5,32.2,30.36,WSW,246,0.0,0.0,81,0.00,,,0.00,Wunderground v.1.15,2013-01-09 10:59:00,
2013-01-09 06:01:00,37.5,32.2,30.36,WSW,247,0.0,0.0,81,0.00,,,0.00,Wunderground v.1.15,2013-01-09 11:01:00,
2013-01-09 06:04:00,37.5,32.2,30.36,WSW,246,0.0,0.0,81,0.00,,,0.00,Wunderground v.1.15,2013-01-09 11:04:00,
2013-01-09 06:07:00,37.5,32.2,30.36,WSW,247,0.0,0.0,81,0.00,,,0.00,Wunderground v.1.15,2013-01-09 11:07:00,
2013-01-09 06:08:00,37.5,32.2,30.36,WSW,246,0.0,0.0,81,0.00,,,0.00,Wunderground v.1.15,2013-01-09 11:08:00,
2013-01-09 06:11:00,37.5,32.2,30.36,WSW,247,0.0,0.0,81,0.00,,,0.00,Wunderground v.1.15,2013-01-09 11:11:00,
2013-01-09 06:14:00,37.4,32.1,30.35,WSW,246,0.0,0.0,81,0.00,,,0.00,Wunderground v.1.15,2013-01-09 11:14:00,
2013-01-09 06:17:00,37.3,32.0,30.35,WSW,247,0.0,0.0,81,0.00,,,0.00,Wunderground v.1.15,2013-01-09 11:17:00,
2013-01-09 06:19:00,37.3,32.0,30.35,WSW,247,0.0,0.0,81,0.00,,,0.00,Wunderground v.1.15,2013-01-09 11:19:00,
2013-01-09 06:20:00,37.3,32.0,30.35,WSW,247,0.0,0.0,81,0.00,,,0.00,Wunderground v.1.15,2013-01-09 11:20:00,
2013-01-09 06:21:00,37.3,32.0,30.35,WSW,246,0.0,0.0,81,0.00,,,0.00,Wunderground v.1.15,2013-01-09 11:21:00,
2013-01-09 06:26:00,37.2,31.9,30.35,WSW,246,0.0,0.0,81,0.00,,,0.00,Wunderground v.1.15,2013-01-09 11:26:00,
2013-01-09 06:27:00,37.2,31.9,30.36,WSW,246,0.0,0.0,81,0.00,,,0.00,Wunderground v.1.15,2013-01-09 11:27:00,
2013-01-09 06:30:00,37.2,31.9,30.35,WSW,247,0.0,0.0,81,0.00,,,0.00,Wunderground v.1.15,2013-01-09 11:30:00,
2013-01-09 06:33:00,37.1,31.8,30.35,WSW,247,0.0,0.0,81,0.00,,,0.00,Wunderground v.1.15,2013-01-09 11:33:00,
2013-01-09 06:38:00,37.2,31.6,30.35,WSW,247,0.0,0.0,80,0.00,,,0.00,Wunderground v.1.15,2013-01-09 11:38:00,
2013-01-09 06:40:00,37.2,31.6,30.35,WSW,247,0.0,0.0,80,0.00,,,0.00,Wunderground v.1.15,2013-01-09 11:40:00,
2013-01-09 06:41:00,37.2,31.6,30.35,WSW,247,0.0,0.0,80,0.00,,,0.00,Wunderground v.1.15,2013-01-09 11:41:00,
2013-01-09 06:42:00,37.2,31.6,30.35,WSW,247,0.0,0.0,80,0.00,,,0.00,Wunderground v.1.15,2013-01-09 11:42:00,
2013-01-09 06:47:00,37.2,31.6,30.35,WSW,247,0.0,0.0,80,0.00,,,0.00,Wunderground v.1.15,2013-01-09 11:47:00,
2013-01-09 06:48:00,37.2,31.6,30.35,WSW,246,0.0,0.0,80,0.00,,,0.00,Wunderground v.1.15,2013-01-09 11:48:00,
2013-01-09 06:50:00,37.2,31.6,30.35,WSW,246,0.0,0.0,80,0.00,,,0.00,Wunderground v.1.15,2013-01-09 11:50:00,
2013-01-09 06:52:00,37.3,31.7,30.35,WSW,246,0.0,0.0,80,0.00,,,0.00,Wunderground v.1.15,2013-01-09 11:52:00,
2013-01-09 06:53:00,37.4,31.8,30.35,WSW,247,0.0,0.0,80,0.00,,,0.00,Wunderground v.1.15,2013-01-09 11:53:00,
2013-01-09 06:55:00,37.5,31.6,30.35,WSW,247,0.0,0.0,79,0.00,,,0.00,Wunderground v.1.15,2013-01-09 11:55:00,
2013-01-09 06:58:00,37.8,31.9,30.35,WSW,247,0.0,0.0,79,0.00,,,0.00,Wunderground v.1.15,2013-01-09 11:58:00,
2013-01-09 07:00:00,37.9,31.7,30.35,WSW,248,0.0,0.0,78,0.00,,,0.00,Wunderground v.1.15,2013-01-09 12:00:00,
2013-01-09 07:01:00,37.9,31.7,30.35,WSW,248,0.0,0.0,78,0.00,,,0.00,Wunderground v.1.15,2013-01-09 12:01:00,
2013-01-09 07:02:00,37.9,31.7,30.36,WSW,248,0.0,0.0,78,0.00,,,0.00,Wunderground v.1.15,2013-01-09 12:02:00,
2013-01-09 07:03:00,38.0,31.7,30.36,WSW,248,0.0,0.0,78,0.00,,,0.00,Wunderground v.1.15,2013-01-09 12:03:00,
2013-01-09 07:08:00,38.1,31.5,30.36,WSW,248,0.0,0.0,77,0.00,,,0.00,Wunderground v.1.15,2013-01-09 12:08:00,
2013-01-09 07:09:00,38.1,31.5,30.36,WSW,248,0.0,0.0,77,0.00,,,0.00,Wunderground v.1.15,2013-01-09 12:09:00,
2013-01-09 07:13:00,38.1,31.5,30.36,WSW,248,0.0,0.0,77,0.00,,,0.00,Wunderground v.1.15,2013-01-09 12:13:00,
2013-01-09 07:14:00,38.0,31.4,30.36,WSW,248,0.0,0.0,77,0.00,,,0.00,Wunderground v.1.15,2013-01-09 12:14:00,
2013-01-09 07:16:00,38.0,31.4,30.36,WSW,248,0.0,0.0,77,0.00,,,0.00,Wunderground v.1.15,2013-01-09 12:16:00,
2013-01-09 07:18:00,38.1,31.5,30.36,WSW,248,0.0,0.0,77,0.00,,,0.00,Wunderground v.1.15,2013-01-09 12:18:00,
2013-01-09 07:20:00,38.0,31.4,30.36,WSW,248,0.0,0.0,77,0.00,,,0.00,Wunderground v.1.15,2013-01-09 12:20:00,
2013-01-09 07:23:00,37.9,31.3,30.36,WSW,248,0.0,0.0,77,0.00,,,0.00,Wunderground v.1.15,2013-01-09 12:23:00,
2013-01-09 07:25:00,37.8,31.2,30.37,WSW,248,0.0,0.0,77,0.00,,,0.00,Wunderground v.1.15,2013-01-09 12:25:00,
2013-01-09 07:26:00,37.8,31.2,30.37,WSW,248,0.0,0.0,77,0.00,,,0.00,Wunderground v.1.15,2013-01-09 12:26:00,
2013-01-09 07:29:00,37.7,31.1,30.37,WSW,248,0.0,1.0,77,0.00,,,0.00,Wunderground v.1.15,2013-01-09 12:29:00,
2013-01-09 07:31:00,37.8,31.2,30.37,WSW,248,0.0,0.0,77,0.00,,,0.00,Wunderground v.1.15,2013-01-09 12:31:00,
2013-01-09 07:32:00,37.8,31.2,30.36,WSW,252,0.0,0.0,77,0.00,,,0.00,Wunderground v.1.15,2013-01-09 12:32:00,
2013-01-09 07:36:00,37.8,31.2,30.37,West,261,0.0,0.0,77,0.00,,,0.00,Wunderground v.1.15,2013-01-09 12:36:00,
2013-01-09 07:38:00,37.8,31.2,30.37,West,261,0.0,0.0,77,0.00,,,0.00,Wunderground v.1.15,2013-01-09 12:38:00,
2013-01-09 07:39:00,37.8,31.2,30.37,West,261,0.0,0.0,77,0.00,,,0.00,Wunderground v.1.15,2013-01-09 12:39:00,
2013-01-09 07:41:00,37.9,31.3,30.36,West,268,0.0,2.0,77,0.00,,,0.00,Wunderground v.1.15,2013-01-09 12:41:00,
2013-01-09 07:43:00,38.0,31.1,30.37,West,269,1.0,2.0,76,0.00,,,0.00,Wunderground v.1.15,2013-01-09 12:43:00,
2013-01-09 07:45:00,38.1,31.2,30.37,West,270,1.0,2.0,76,0.00,,,0.00,Wunderground v.1.15,2013-01-09 12:45:00,
2013-01-09 07:47:00,38.1,31.2,30.37,West,269,1.0,2.0,76,0.00,,,0.00,Wunderground v.1.15,2013-01-09 12:47:00,
2013-01-09 07:48:00,38.2,31.3,30.37,West,269,1.0,2.0,76,0.00,,,0.00,Wunderground v.1.15,2013-01-09 12:48:00,
2013-01-09 07:50:00,38.2,31.0,30.37,West,269,1.0,1.0,75,0.00,,,0.00,Wunderground v.1.15,2013-01-09 12:50:00,
2013-01-09 07:51:00,38.3,31.1,30.37,West,269,1.0,1.0,75,0.00,,,0.00,Wunderground v.1.15,2013-01-09 12:51:00,
2013-01-09 07:53:00,38.4,31.2,30.37,West,271,1.0,1.0,75,0.00,,,0.00,Wunderground v.1.15,2013-01-09 12:53:00,
2013-01-09 07:55:00,38.4,31.2,30.37,West,272,0.0,1.0,75,0.00,,,0.00,Wunderground v.1.15,2013-01-09 12:55:00,
2013-01-09 07:56:00,38.4,31.2,30.37,West,272,0.0,1.0,75,0.00,,,0.00,Wunderground v.1.15,2013-01-09 12:56:00,
2013-01-09 07:58:00,38.4,31.2,30.37,West,272,0.0,1.0,75,0.00,,,0.00,Wunderground v.1.15,2013-01-09 12:58:00,
2013-01-09 08:00:00,38.3,31.1,30.37,West,272,0.0,0.0,75,0.00,,,0.00,Wunderground v.1.15,2013-01-09 13:00:00,
2013-01-09 08:03:00,38.2,31.0,30.37,West,273,0.0,2.0,75,0.00,,,0.00,Wunderground v.1.15,2013-01-09 13:03:00,
2013-01-09 08:04:00,38.2,31.0,30.37,West,272,0.0,2.0,75,0.00,,,0.00,Wunderground v.1.15,2013-01-09 13:04:00,
2013-01-09 08:06:00,38.1,30.9,30.37,West,269,0.0,4.0,75,0.00,,,0.00,Wunderground v.1.15,2013-01-09 13:06:00,
2013-01-09 08:09:00,38.3,31.7,30.37,West,273,1.0,4.0,77,0.00,,,0.00,Wunderground v.1.15,2013-01-09 13:09:00,
2013-01-09 08:10:00,38.4,31.5,30.37,West,274,1.0,1.0,76,0.00,,,0.00,Wunderground v.1.15,2013-01-09 13:10:00,
2013-01-09 08:12:00,38.4,31.5,30.37,West,274,1.0,1.0,76,0.00,,,0.00,Wunderground v.1.15,2013-01-09 13:12:00,
2013-01-09 08:17:00,38.3,31.7,30.37,West,276,0.0,1.0,77,0.00,,,0.00,Wunderground v.1.15,2013-01-09 13:17:00,
2013-01-09 08:20:00,38.2,31.6,30.37,West,276,0.0,0.0,77,0.00,,,0.00,Wunderground v.1.15,2013-01-09 13:20:00,
2013-01-09 08:22:00,38.2,31.6,30.37,West,276,0.0,0.0,77,0.00,,,0.01,Wunderground v.1.15,2013-01-09 13:22:00,
2013-01-09 08:26:00,38.2,31.6,30.37,West,276,0.0,0.0,77,0.00,,,0.01,Wunderground v.1.15,2013-01-09 13:26:00,
2013-01-09 08:27:00,38.2,31.6,30.37,West,277,0.0,0.0,77,0.00,,,0.01,Wunderground v.1.15,2013-01-09 13:27:00,
2013-01-09 08:28:00,38.2,31.6,30.37,West,277,0.0,0.0,77,0.00,,,0.01,Wunderground v.1.15,2013-01-09 13:28:00,
2013-01-09 08:32:00,38.1,31.5,30.37,West,276,0.0,3.0,77,0.00,,,0.01,Wunderground v.1.15,2013-01-09 13:32:00,
2013-01-09 08:34:00,38.1,31.5,30.37,West,276,0.0,3.0,77,0.00,,,0.01,Wunderground v.1.15,2013-01-09 13:34:00,
2013-01-09 08:36:00,38.1,31.5,30.37,West,277,0.0,3.0,77,0.00,,,0.01,Wunderground v.1.15,2013-01-09 13:36:00,
2013-01-09 08:37:00,38.1,31.5,30.37,West,277,0.0,3.0,77,0.00,,,0.01,Wunderground v.1.15,2013-01-09 13:37:00,
2013-01-09 08:42:00,38.1,31.5,30.37,West,277,0.0,0.0,77,0.00,,,0.01,Wunderground v.1.15,2013-01-09 13:42:00,
2013-01-09 08:43:00,38.3,32.0,30.38,West,273,0.0,2.0,78,0.00,,,0.01,Wunderground v.1.15,2013-01-09 13:43:00,
2013-01-09 08:45:00,38.7,32.4,30.37,West,273,0.0,2.0,78,0.00,,,0.01,Wunderground v.1.15,2013-01-09 13:45:00,
2013-01-09 08:48:00,39.3,32.7,30.37,WSW,250,1.0,2.0,77,0.00,,,0.01,Wunderground v.1.15,2013-01-09 13:48:00,
2013-01-09 08:50:00,39.4,32.8,30.37,WSW,250,1.0,1.0,77,0.00,,,0.01,Wunderground v.1.15,2013-01-09 13:50:00,
2013-01-09 08:51:00,39.5,32.9,30.37,WSW,250,1.0,1.0,77,0.00,,,0.01,Wunderground v.1.15,2013-01-09 13:51:00,
2013-01-09 08:54:00,39.8,32.8,30.36,WSW,253,0.0,1.0,76,0.00,,,0.01,Wunderground v.1.15,2013-01-09 13:54:00,
2013-01-09 08:56:00,39.8,32.8,30.37,WSW,254,0.0,1.0,76,0.00,,,0.01,Wunderground v.1.15,2013-01-09 13:56:00,
2013-01-09 08:59:00,40.0,32.7,30.37,WNW,286,0.0,2.0,75,0.00,,,0.01,Wunderground v.1.15,2013-01-09 13:59:00,
2013-01-09 09:02:00,40.1,32.8,30.37,WNW,287,0.0,7.0,75,0.00,,,0.01,Wunderground v.1.15,2013-01-09 14:02:00,
2013-01-09 09:03:00,40.1,32.8,30.37,WNW,287,0.0,7.0,75,0.00,,,0.01,Wunderground v.1.15,2013-01-09 14:03:00,
2013-01-09 09:05:00,40.2,32.9,30.36,WNW,286,0.0,7.0,75,0.00,,,0.01,Wunderground v.1.15,2013-01-09 14:05:00,
2013-01-09 09:06:00,40.2,32.9,30.36,WNW,287,0.0,7.0,75,0.00,,,0.01,Wunderground v.1.15,2013-01-09 14:06:00,
2013-01-09 09:09:00,40.2,32.9,30.36,WNW,287,0.0,7.0,75,0.00,,,0.01,Wunderground v.1.15,2013-01-09 14:09:00,
2013-01-09 09:10:00,40.3,33.0,30.36,WNW,287,0.0,0.0,75,0.00,,,0.01,Wunderground v.1.15,2013-01-09 14:10:00,
2013-01-09 09:12:00,40.3,33.0,30.36,WNW,288,0.0,4.0,75,0.00,,,0.01,Wunderground v.1.15,2013-01-09 14:12:00,
2013-01-09 09:15:00,40.4,33.1,30.37,WNW,294,1.0,4.0,75,0.00,,,0.01,Wunderground v.1.15,2013-01-09 14:15:00,
2013-01-09 09:19:00,40.5,33.2,30.37,WNW,292,1.0,4.0,75,0.00,,,0.01,Wunderground v.1.15,2013-01-09 14:19:00,
2013-01-09 09:20:00,40.5,32.9,30.37,WNW,292,1.0,1.0,74,0.00,,,0.01,Wunderground v.1.15,2013-01-09 14:20:00,
2013-01-09 09:23:00,40.5,32.9,30.37,WNW,283,1.0,1.0,74,0.00,,,0.02,Wunderground v.1.15,2013-01-09 14:23:00,
2013-01-09 09:24:00,40.5,32.9,30.36,WNW,283,1.0,1.0,74,0.00,,,0.02,Wunderground v.1.15,2013-01-09 14:24:00,
2013-01-09 09:27:00,40.5,32.9,30.36,WNW,298,0.0,1.0,74,0.00,,,0.02,Wunderground v.1.15,2013-01-09 14:27:00,
2013-01-09 09:29:00,40.5,32.9,30.36,WNW,286,0.0,1.0,74,0.00,,,0.02,Wunderground v.1.15,2013-01-09 14:29:00,
2013-01-09 09:34:00,40.5,32.9,30.36,WNW,298,0.0,4.0,74,0.00,,,0.02,Wunderground v.1.15,2013-01-09 14:34:00,
2013-01-09 09:35:00,40.5,32.9,30.36,WNW,297,0.0,4.0,74,0.00,,,0.02,Wunderground v.1.15,2013-01-09 14:35:00,
2013-01-09 09:37:00,40.4,33.1,30.37,WNW,287,0.0,4.0,75,0.00,,,0.02,Wunderground v.1.15,2013-01-09 14:37:00,
2013-01-09 09:40:00,40.5,33.2,30.36,WNW,284,1.0,1.0,75,0.00,,,0.02,Wunderground v.1.15,2013-01-09 14:40:00,
2013-01-09 09:41:00,40.5,32.9,30.36,West,281,1.0,1.0,74,0.00,,,0.02,Wunderground v.1.15,2013-01-09 14:41:00,
2013-01-09 09:42:00,40.4,32.8,30.37,West,277,1.0,2.0,74,0.00,,,0.02,Wunderground v.1.15,2013-01-09 14:42:00,
2013-01-09 09:44:00,40.5,32.9,30.37,West,276,1.0,2.0,74,0.00,,,0.02,Wunderground v.1.15,2013-01-09 14:44:00,
2013-01-09 09:47:00,40.5,32.9,30.37,West,279,1.0,2.0,74,0.00,,,0.02,Wunderground v.1.15,2013-01-09 14:47:00,
2013-01-09 09:49:00,40.5,32.9,30.37,West,280,1.0,2.0,74,0.00,,,0.02,Wunderground v.1.15,2013-01-09 14:49:00,
2013-01-09 09:50:00,40.5,32.9,30.37,West,279,1.0,1.0,74,0.00,,,0.02,Wunderground v.1.15,2013-01-09 14:50:00,
2013-01-09 09:51:00,40.5,32.9,30.37,West,279,1.0,1.0,74,0.00,,,0.02,Wunderground v.1.15,2013-01-09 14:51:00,
2013-01-09 09:54:00,40.3,33.0,30.37,West,279,0.0,1.0,75,0.00,,,0.02,Wunderground v.1.15,2013-01-09 14:54:00,
2013-01-09 09:57:00,40.1,32.8,30.37,West,279,0.0,1.0,75,0.00,,,0.02,Wunderground v.1.15,2013-01-09 14:57:00,
2013-01-09 10:00:00,40.0,32.7,30.37,West,279,0.0,0.0,75,0.00,,,0.02,Wunderground v.1.15,2013-01-09 15:00:00,
2013-01-09 10:03:00,40.0,32.7,30.37,West,278,0.0,4.0,75,0.00,,,0.02,Wunderground v.1.15,2013-01-09 15:03:00,
2013-01-09 10:04:00,40.1,32.8,30.37,West,278,0.0,4.0,75,0.00,,,0.02,Wunderground v.1.15,2013-01-09 15:04:00,
2013-01-09 10:05:00,40.1,32.8,30.36,West,278,0.0,4.0,75,0.00,,,0.02,Wunderground v.1.15,2013-01-09 15:05:00,
2013-01-09 10:06:00,40.1,32.8,30.37,West,278,0.0,4.0,75,0.00,,,0.02,Wunderground v.1.15,2013-01-09 15:06:00,
2013-01-09 10:12:00,40.2,32.9,30.36,West,277,0.0,0.0,75,0.00,,,0.02,Wunderground v.1.15,2013-01-09 15:12:00,
2013-01-09 10:13:00,40.3,33.0,30.36,West,270,0.0,0.0,75,0.00,,,0.03,Wunderground v.1.15,2013-01-09 15:13:00,
2013-01-09 10:14:00,40.3,33.0,30.36,West,271,0.0,0.0,75,0.00,,,0.03,Wunderground v.1.15,2013-01-09 15:14:00,
2013-01-09 10:16:00,40.4,33.1,30.36,NW,309,0.0,2.0,75,0.00,,,0.03,Wunderground v.1.15,2013-01-09 15:16:00,
2013-01-09 10:19:00,40.5,33.5,30.36,NW,311,0.0,2.0,76,0.00,,,0.03,Wunderground v.1.15,2013-01-09 15:19:00,
2013-01-09 10:22:00,40.5,33.2,30.36,NW,309,1.0,2.0,75,0.00,,,0.03,Wunderground v.1.15,2013-01-09 15:22:00,
2013-01-09 10:24:00,40.6,33.3,30.36,NW,309,1.0,2.0,75,0.00,,,0.03,Wunderground v.1.15,2013-01-09 15:24:00,
2013-01-09 10:29:00,40.7,33.4,30.36,NW,309,0.0,2.0,75,0.00,,,0.03,Wunderground v.1.15,2013-01-09 15:29:00,
2013-01-09 10:30:00,40.8,33.5,30.36,NW,309,0.0,0.0,75,0.00,,,0.03,Wunderground v.1.15,2013-01-09 15:30:00,
2013-01-09 10:31:00,40.8,33.5,30.36,NW,309,0.0,3.0,75,0.00,,,0.03,Wunderground v.1.15,2013-01-09 15:31:00,
2013-01-09 10:35:00,40.8,33.5,30.36,NW,311,0.0,3.0,75,0.00,,,0.03,Wunderground v.1.15,2013-01-09 15:35:00,
2013-01-09 10:38:00,40.9,33.6,30.36,WNW,300,0.0,3.0,75,0.00,,,0.04,Wunderground v.1.15,2013-01-09 15:38:00,
2013-01-09 10:42:00,40.9,33.6,30.36,WNW,284,1.0,2.0,75,0.00,,,0.04,Wunderground v.1.15,2013-01-09 15:42:00,
2013-01-09 10:44:00,40.9,33.6,30.36,WNW,283,1.0,2.0,75,0.00,,,0.04,Wunderground v.1.15,2013-01-09 15:44:00,
2013-01-09 10:48:00,40.7,33.4,30.35,WNW,284,1.0,2.0,75,0.00,,,0.04,Wunderground v.1.15,2013-01-09 15:48:00,
2013-01-09 10:52:00,40.5,33.5,30.35,West,278,0.0,1.0,76,0.00,,,0.04,Wunderground v.1.15,2013-01-09 15:52:00,
2013-01-09 10:55:00,40.6,33.6,30.35,West,278,0.0,1.0,76,0.00,,,0.04,Wunderground v.1.15,2013-01-09 15:55:00,
2013-01-09 10:59:00,40.5,33.5,30.35,West,279,0.0,1.0,76,0.00,,,0.04,Wunderground v.1.15,2013-01-09 15:59:00,
2013-01-09 11:00:00,40.5,33.5,30.35,West,280,0.0,0.0,76,0.00,,,0.04,Wunderground v.1.15,2013-01-09 16:00:00,
2013-01-09 11:03:00,40.5,33.5,30.35,West,280,0.0,3.0,76,0.00,,,0.04,Wunderground v.1.15,2013-01-09 16:03:00,
2013-01-09 11:04:00,40.5,33.5,30.35,NW,304,0.0,3.0,76,0.00,,,0.04,Wunderground v.1.15,2013-01-09 16:04:00,
2013-01-09 11:05:00,40.5,33.9,30.35,WNW,290,0.0,3.0,77,0.00,,,0.04,Wunderground v.1.15,2013-01-09 16:05:00,
2013-01-09 11:11:00,40.3,33.7,30.35,WNW,287,1.0,3.0,77,0.00,,,0.04,Wunderground v.1.15,2013-01-09 16:11:00,
2013-01-09 11:13:00,40.2,33.6,30.35,West,276,1.0,3.0,77,0.00,,,0.04,Wunderground v.1.15,2013-01-09 16:13:00,
2013-01-09 11:16:00,40.1,33.5,30.35,WNW,292,1.0,3.0,77,0.00,,,0.04,Wunderground v.1.15,2013-01-09 16:16:00,
2013-01-09 11:18:00,40.0,33.7,30.34,WNW,286,1.0,3.0,78,0.00,,,0.05,Wunderground v.1.15,2013-01-09 16:18:00,
2013-01-09 11:19:00,40.0,33.7,30.34,WNW,286,1.0,3.0,78,0.00,,,0.05,Wunderground v.1.15,2013-01-09 16:19:00,
2013-01-09 11:22:00,40.0,33.7,30.34,West,281,0.0,3.0,78,0.00,,,0.05,Wunderground v.1.15,2013-01-09 16:22:00,
2013-01-09 11:26:00,40.1,33.8,30.34,West,275,1.0,3.0,78,0.00,,,0.05,Wunderground v.1.15,2013-01-09 16:26:00,
2013-01-09 11:28:00,40.2,33.9,30.34,West,275,1.0,3.0,78,0.00,,,0.05,Wunderground v.1.15,2013-01-09 16:28:00,
2013-01-09 11:31:00,40.2,33.9,30.33,West,275,1.0,3.0,78,0.00,,,0.05,Wunderground v.1.15,2013-01-09 16:31:00,
2013-01-09 11:34:00,40.3,34.0,30.33,West,276,0.0,3.0,78,0.00,,,0.05,Wunderground v.1.15,2013-01-09 16:34:00,
2013-01-09 11:37:00,40.2,33.9,30.34,WNW,290,0.0,3.0,78,0.00,,,0.05,Wunderground v.1.15,2013-01-09 16:37:00,
2013-01-09 11:38:00,40.2,33.9,30.34,West,280,1.0,3.0,78,0.00,,,0.05,Wunderground v.1.15,2013-01-09 16:38:00,
2013-01-09 11:40:00,40.2,33.9,30.33,West,280,1.0,1.0,78,0.00,,,0.05,Wunderground v.1.15,2013-01-09 16:40:00,
2013-01-09 11:43:00,40.1,33.8,30.33,WNW,288,1.0,1.0,78,0.00,,,0.06,Wunderground v.1.15,2013-01-09 16:43:00,
2013-01-09 11:47:00,40.0,34.0,30.33,WNW,289,1.0,1.0,79,0.00,,,0.06,Wunderground v.1.15,2013-01-09 16:47:00,
2013-01-09 11:49:00,39.9,33.9,30.34,WNW,302,1.0,3.0,79,0.00,,,0.06,Wunderground v.1.15,2013-01-09 16:49:00,
2013-01-09 11:50:00,39.9,33.9,30.34,WNW,286,1.0,3.0,79,0.00,,,0.06,Wunderground v.1.15,2013-01-09 16:50:00,
2013-01-09 11:52:00,40.0,34.0,30.34,WNW,295,1.0,4.0,79,0.00,,,0.06,Wunderground v.1.15,2013-01-09 16:52:00,
2013-01-09 11:55:00,40.0,34.0,30.34,WNW,296,2.0,4.0,79,0.00,,,0.06,Wunderground v.1.15,2013-01-09 16:55:00,
2013-01-09 11:56:00,40.0,34.0,30.33,WNW,294,2.0,4.0,79,0.00,,,0.06,Wunderground v.1.15,2013-01-09 16:56:00,
2013-01-09 11:58:00,40.1,34.1,30.33,West,277,2.0,4.0,79,0.00,,,0.06,Wunderground v.1.15,2013-01-09 16:58:00,
2013-01-09 11:59:00,40.0,34.0,30.33,WNW,291,2.0,4.0,79,0.00,,,0.06,Wunderground v.1.15,2013-01-09 16:59:00,
2013-01-09 12:01:00,40.0,34.3,30.33,WNW,300,2.0,4.0,80,0.00,,,0.06,Wunderground v.1.15,2013-01-09 17:01:00,
2013-01-09 12:02:00,40.1,34.4,30.33,WNW,302,2.0,4.0,80,0.00,,,0.06,Wunderground v.1.15,2013-01-09 17:02:00,
2013-01-09 12:03:00,40.1,34.4,30.33,WNW,290,2.0,4.0,80,0.00,,,0.06,Wunderground v.1.15,2013-01-09 17:03:00,
2013-01-09 12:05:00,40.1,34.4,30.33,NW,307,2.0,4.0,80,0.00,,,0.06,Wunderground v.1.15,2013-01-09 17:05:00,
2013-01-09 12:07:00,40.1,34.4,30.33,West,263,2.0,4.0,80,0.00,,,0.06,Wunderground v.1.15,2013-01-09 17:07:00,
2013-01-09 12:08:00,40.1,34.4,30.34,West,271,2.0,4.0,80,0.00,,,0.06,Wunderground v.1.15,2013-01-09 17:08:00,
2013-01-09 12:09:00,40.1,34.4,30.34,WSW,258,2.0,4.0,80,0.00,,,0.06,Wunderground v.1.15,2013-01-09 17:09:00,
2013-01-09 12:10:00,40.2,34.5,30.34,West,275,2.0,2.0,80,0.00,,,0.06,Wunderground v.1.15,2013-01-09 17:10:00,
2013-01-09 12:14:00,40.2,34.8,30.34,West,278,1.0,2.0,81,0.00,,,0.06,Wunderground v.1.15,2013-01-09 17:14:00,
2013-01-09 12:16:00,40.1,35.0,30.34,WNW,284,1.0,2.0,82,0.00,,,0.07,Wunderground v.1.15,2013-01-09 17:16:00,
2013-01-09 12:18:00,40.1,35.4,30.34,WNW,284,1.0,2.0,83,0.00,,,0.07,Wunderground v.1.15,2013-01-09 17:18:00,
2013-01-09 12:19:00,40.0,35.3,30.34,WNW,284,1.0,2.0,83,0.00,,,0.07,Wunderground v.1.15,2013-01-09 17:19:00,
2013-01-09 12:22:00,39.8,35.4,30.34,West,281,0.0,2.0,84,0.00,,,0.07,Wunderground v.1.15,2013-01-09 17:22:00,
2013-01-09 12:23:00,39.8,35.4,30.33,West,281,0.0,2.0,84,0.00,,,0.07,Wunderground v.1.15,2013-01-09 17:23:00,
2013-01-09 12:24:00,39.8,35.4,30.33,West,281,0.0,2.0,84,0.00,,,0.07,Wunderground v.1.15,2013-01-09 17:24:00,
2013-01-09 12:25:00,39.8,35.4,30.33,West,280,0.0,2.0,84,0.00,,,0.07,Wunderground v.1.15,2013-01-09 17:25:00,
2013-01-09 12:29:00,39.6,35.5,30.33,West,281,0.0,2.0,85,0.05,,,0.08,Wunderground v.1.15,2013-01-09 17:29:00,
2013-01-09 12:31:00,39.5,35.7,30.33,West,280,0.0,5.0,86,0.05,,,0.08,Wunderground v.1.15,2013-01-09 17:31:00,
2013-01-09 12:32:00,39.4,35.6,30.33,West,280,0.0,5.0,86,0.05,,,0.08,Wunderground v.1.15,2013-01-09 17:32:00,
2013-01-09 12:36:00,39.2,35.7,30.33,West,280,0.0,5.0,87,0.05,,,0.08,Wunderground v.1.15,2013-01-09 17:36:00,
2013-01-09 12:37:00,39.2,35.7,30.33,West,280,0.0,5.0,87,0.05,,,0.08,Wunderground v.1.15,2013-01-09 17:37:00,
2013-01-09 12:38:00,39.2,35.7,30.33,West,280,0.0,5.0,87,0.05,,,0.08,Wunderground v.1.15,2013-01-09 17:38:00,
2013-01-09 12:42:00,39.1,35.6,30.33,West,281,0.0,0.0,87,0.04,,,0.08,Wunderground v.1.15,2013-01-09 17:42:00,
2013-01-09 12:43:00,39.0,35.5,30.33,West,280,0.0,0.0,87,0.04,,,0.08,Wunderground v.1.15,2013-01-09 17:43:00,
2013-01-09 12:46:00,38.9,35.6,30.33,West,281,0.0,0.0,88,0.00,,,0.08,Wunderground v.1.15,2013-01-09 17:46:00,
2013-01-09 12:48:00,38.8,35.6,30.32,West,281,0.0,0.0,88,0.00,,,0.08,Wunderground v.1.15,2013-01-09 17:48:00,
2013-01-09 12:49:00,38.8,35.6,30.32,West,280,0.0,0.0,88,0.00,,,0.08,Wunderground v.1.15,2013-01-09 17:49:00,
2013-01-09 12:50:00,38.7,35.5,30.32,West,281,0.0,0.0,88,0.00,,,0.08,Wunderground v.1.15,2013-01-09 17:50:00,
2013-01-09 12:51:00,38.7,35.5,30.32,West,281,0.0,0.0,88,0.00,,,0.08,Wunderground v.1.15,2013-01-09 17:51:00,
2013-01-09 12:55:00,38.7,35.7,30.32,West,281,0.0,0.0,89,0.00,,,0.08,Wunderground v.1.15,2013-01-09 17:55:00,
2013-01-09 12:58:00,38.7,35.5,30.32,West,281,0.0,0.0,88,0.00,,,0.08,Wunderground v.1.15,2013-01-09 17:58:00,
2013-01-09 13:01:00,38.8,35.6,30.31,West,281,0.0,5.0,88,0.00,,,0.08,Wunderground v.1.15,2013-01-09 18:01:00,
2013-01-09 13:02:00,38.9,35.6,30.31,West,281,0.0,5.0,88,0.00,,,0.08,Wunderground v.1.15,2013-01-09 18:02:00,
2013-01-09 13:04:00,38.9,35.6,30.31,West,281,0.0,5.0,88,0.00,,,0.08,Wunderground v.1.15,2013-01-09 18:04:00,
2013-01-09 13:05:00,38.9,35.6,30.31,West,280,0.0,5.0,88,0.00,,,0.08,Wunderground v.1.15,2013-01-09 18:05:00,
2013-01-09 13:07:00,39.0,35.5,30.31,West,280,0.0,5.0,87,0.00,,,0.08,Wunderground v.1.15,2013-01-09 18:07:00,
2013-01-09 13:09:00,39.0,35.7,30.31,WNW,283,0.0,5.0,88,0.00,,,0.08,Wunderground v.1.15,2013-01-09 18:09:00,
2013-01-09 13:11:00,39.2,35.9,30.31,WNW,283,0.0,0.0,88,0.00,,,0.08,Wunderground v.1.15,2013-01-09 18:11:00,
2013-01-09 13:12:00,39.3,35.8,30.31,WNW,283,0.0,0.0,87,0.00,,,0.08,Wunderground v.1.15,2013-01-09 18:12:00,
2013-01-09 13:14:00,39.4,35.9,30.31,WNW,283,0.0,0.0,87,0.00,,,0.08,Wunderground v.1.15,2013-01-09 18:14:00,
2013-01-09 13:16:00,39.6,36.0,30.31,WNW,283,0.0,0.0,87,0.00,,,0.08,Wunderground v.1.15,2013-01-09 18:16:00,
2013-01-09 13:18:00,39.8,36.0,30.31,WNW,283,0.0,0.0,86,0.00,,,0.08,Wunderground v.1.15,2013-01-09 18:18:00,
2013-01-09 13:19:00,39.9,36.1,30.31,WNW,283,0.0,0.0,86,0.00,,,0.08,Wunderground v.1.15,2013-01-09 18:19:00,
2013-01-09 13:23:00,40.2,36.1,30.30,WNW,283,0.0,0.0,85,0.00,,,0.08,Wunderground v.1.15,2013-01-09 18:23:00,
2013-01-09 13:25:00,40.4,36.2,30.29,West,281,0.0,0.0,85,0.00,,,0.08,Wunderground v.1.15,2013-01-09 18:25:00,
2013-01-09 13:26:00,40.4,36.2,30.29,West,281,0.0,0.0,85,0.00,,,0.08,Wunderground v.1.15,2013-01-09 18:26:00,
2013-01-09 13:27:00,40.6,36.1,30.30,West,281,0.0,0.0,84,0.00,,,0.08,Wunderground v.1.15,2013-01-09 18:27:00,
2013-01-09 13:28:00,40.7,36.2,30.30,West,281,0.0,0.0,84,0.00,,,0.08,Wunderground v.1.15,2013-01-09 18:28:00,
2013-01-09 13:30:00,40.9,36.4,30.29,West,280,0.0,2.0,84,0.00,,,0.08,Wunderground v.1.15,2013-01-09 18:30:00,
2013-01-09 13:33:00,41.4,36.6,30.29,West,273,1.0,4.0,83,0.00,,,0.09,Wunderground v.1.15,2013-01-09 18:33:00,
2013-01-09 13:35:00,41.8,36.7,30.29,West,273,1.0,4.0,82,0.00,,,0.09,Wunderground v.1.15,2013-01-09 18:35:00,
2013-01-09 13:36:00,41.9,36.5,30.28,West,272,2.0,4.0,81,0.00,,,0.09,Wunderground v.1.15,2013-01-09 18:36:00,
2013-01-09 13:38:00,42.1,36.7,30.28,West,268,2.0,4.0,81,0.00,,,0.09,Wunderground v.1.15,2013-01-09 18:38:00,
2013-01-09 13:41:00,42.3,36.6,30.28,West,275,2.0,3.0,80,0.00,,,0.09,Wunderground v.1.15,2013-01-09 18:41:00,
2013-01-09 13:42:00,42.3,36.6,30.29,West,275,2.0,3.0,80,0.00,,,0.09,Wunderground v.1.15,2013-01-09 18:42:00,
2013-01-09 13:43:00,42.3,36.6,30.29,West,271,2.0,4.0,80,0.00,,,0.09,Wunderground v.1.15,2013-01-09 18:43:00,
2013-01-09 13:44:00,42.3,36.6,30.29,West,261,2.0,4.0,80,0.00,,,0.09,Wunderground v.1.15,2013-01-09 18:44:00,
2013-01-09 13:48:00,42.1,36.4,30.29,WNW,283,3.0,4.0,80,0.00,,,0.09,Wunderground v.1.15,2013-01-09 18:48:00,
2013-01-09 13:49:00,42.0,36.3,30.29,West,276,3.0,4.0,80,0.00,,,0.09,Wunderground v.1.15,2013-01-09 18:49:00,
2013-01-09 13:52:00,41.7,36.0,30.28,West,273,3.0,3.0,80,0.00,,,0.09,Wunderground v.1.15,2013-01-09 18:52:00,
2013-01-09 13:53:00,41.6,35.9,30.28,West,280,3.0,3.0,80,0.00,,,0.09,Wunderground v.1.15,2013-01-09 18:53:00,
2013-01-09 13:58:00,41.6,36.2,30.28,WNW,285,3.0,5.0,81,0.00,,,0.09,Wunderground v.1.15,2013-01-09 18:58:00,
2013-01-09 14:00:00,41.6,36.2,30.28,West,262,3.0,3.0,81,0.00,,,0.09,Wunderground v.1.15,2013-01-09 19:00:00,
2013-01-09 14:01:00,41.6,36.2,30.28,West,277,3.0,3.0,81,0.00,,,0.09,Wunderground v.1.15,2013-01-09 19:01:00,
2013-01-09 14:03:00,41.8,36.4,30.28,West,273,3.0,3.0,81,0.00,,,0.09,Wunderground v.1.15,2013-01-09 19:03:00,
2013-01-09 14:04:00,41.9,36.5,30.28,West,269,3.0,4.0,81,0.00,,,0.09,Wunderground v.1.15,2013-01-09 19:04:00,
2013-01-09 14:06:00,42.0,36.3,30.28,West,275,3.0,4.0,80,0.00,,,0.09,Wunderground v.1.15,2013-01-09 19:06:00,
2013-01-09 14:08:00,41.8,36.1,30.27,West,271,2.0,4.0,80,0.00,,,0.09,Wunderground v.1.15,2013-01-09 19:08:00,
2013-01-09 14:10:00,41.7,36.3,30.27,West,275,3.0,3.0,81,0.00,,,0.09,Wunderground v.1.15,2013-01-09 19:10:00,
2013-01-09 14:11:00,41.7,36.3,30.27,West,263,2.0,3.0,81,0.00,,,0.09,Wunderground v.1.15,2013-01-09 19:11:00,
2013-01-09 14:13:00,41.6,36.2,30.26,West,261,2.0,3.0,81,0.00,,,0.09,Wunderground v.1.15,2013-01-09 19:13:00,
2013-01-09 14:18:00,41.7,36.3,30.25,West,279,2.0,3.0,81,0.00,,,0.10,Wunderground v.1.15,2013-01-09 19:18:00,
2013-01-09 14:19:00,41.8,36.4,30.25,West,269,2.0,3.0,81,0.00,,,0.10,Wunderground v.1.15,2013-01-09 19:19:00,
2013-01-09 14:21:00,41.8,36.4,30.25,West,275,2.0,2.0,81,0.00,,,0.10,Wunderground v.1.15,2013-01-09 19:21:00,
2013-01-09 14:24:00,41.9,36.5,30.25,West,272,2.0,3.0,81,0.00,,,0.10,Wunderground v.1.15,2013-01-09 19:24:00,
2013-01-09 14:26:00,42.0,36.6,30.25,West,259,2.0,4.0,81,0.00,,,0.10,Wunderground v.1.15,2013-01-09 19:26:00,
2013-01-09 14:27:00,42.0,36.6,30.25,West,259,2.0,4.0,81,0.00,,,0.10,Wunderground v.1.15,2013-01-09 19:27:00,
2013-01-09 14:30:00,42.0,36.6,30.25,West,273,2.0,3.0,81,0.00,,,0.10,Wunderground v.1.15,2013-01-09 19:30:00,
2013-01-09 14:33:00,42.0,36.6,30.24,West,273,2.0,5.0,81,0.00,,,0.10,Wunderground v.1.15,2013-01-09 19:33:00,
2013-01-09 14:36:00,41.8,36.4,30.25,WNW,294,2.0,6.0,81,0.00,,,0.10,Wunderground v.1.15,2013-01-09 19:36:00,
2013-01-09 14:39:00,41.7,36.3,30.26,West,260,3.0,6.0,81,0.00,,,0.10,Wunderground v.1.15,2013-01-09 19:39:00,
2013-01-09 14:41:00,41.6,36.2,30.26,West,280,3.0,3.0,81,0.00,,,0.10,Wunderground v.1.15,2013-01-09 19:41:00,
2013-01-09 14:42:00,41.5,36.1,30.26,West,280,3.0,3.0,81,0.00,,,0.10,Wunderground v.1.15,2013-01-09 19:42:00,
2013-01-09 14:44:00,41.4,36.3,30.26,West,281,3.0,3.0,82,0.00,,,0.10,Wunderground v.1.15,2013-01-09 19:44:00,
2013-01-09 14:45:00,41.3,36.2,30.26,WNW,299,3.0,3.0,82,0.00,,,0.10,Wunderground v.1.15,2013-01-09 19:45:00,
2013-01-09 14:47:00,41.1,36.0,30.26,West,274,3.0,4.0,82,0.00,,,0.10,Wunderground v.1.15,2013-01-09 19:47:00,
2013-01-09 14:51:00,40.7,35.9,30.26,West,277,2.0,2.0,83,0.00,,,0.10,Wunderground v.1.15,2013-01-09 19:51:00,
2013-01-09 14:52:00,40.6,35.8,30.26,West,279,2.0,2.0,83,0.00,,,0.10,Wunderground v.1.15,2013-01-09 19:52:00,
2013-01-09 14:53:00,40.5,35.7,30.26,West,273,2.0,2.0,83,0.00,,,0.10,Wunderground v.1.15,2013-01-09 19:53:00,
2013-01-09 14:55:00,40.4,35.6,30.26,WNW,291,1.0,2.0,83,0.00,,,0.10,Wunderground v.1.15,2013-01-09 19:55:00,
2013-01-09 15:00:00,39.9,35.5,30.26,WNW,300,0.0,0.0,84,0.00,,,0.10,Wunderground v.1.15,2013-01-09 20:00:00,
2013-01-09 15:01:00,39.9,35.8,30.26,WNW,300,0.0,7.0,85,0.00,,,0.10,Wunderground v.1.15,2013-01-09 20:01:00,
2013-01-09 15:03:00,39.7,35.6,30.27,WNW,300,0.0,7.0,85,0.00,,,0.10,Wunderground v.1.15,2013-01-09 20:03:00,
2013-01-09 15:06:00,39.5,35.4,30.27,WNW,298,0.0,7.0,85,0.00,,,0.10,Wunderground v.1.15,2013-01-09 20:06:00,
2013-01-09 15:07:00,39.5,35.4,30.27,WNW,298,0.0,7.0,85,0.00,,,0.10,Wunderground v.1.15,2013-01-09 20:07:00,
2013-01-09 15:08:00,39.4,35.6,30.27,WNW,298,0.0,7.0,86,0.00,,,0.10,Wunderground v.1.15,2013-01-09 20:08:00,
2013-01-09 15:09:00,39.3,35.2,30.27,WNW,298,0.0,7.0,85,0.00,,,0.10,Wunderground v.1.15,2013-01-09 20:09:00,
2013-01-09 15:12:00,39.1,35.3,30.27,WNW,298,0.0,0.0,86,0.00,,,0.10,Wunderground v.1.15,2013-01-09 20:12:00,
2013-01-09 15:13:00,39.1,35.3,30.27,West,276,0.0,2.0,86,0.00,,,0.10,Wunderground v.1.15,2013-01-09 20:13:00,
2013-01-09 15:14:00,39.0,35.2,30.27,West,276,0.0,2.0,86,0.00,,,0.10,Wunderground v.1.15,2013-01-09 20:14:00,
2013-01-09 15:15:00,39.0,35.2,30.27,West,276,0.0,2.0,86,0.00,,,0.10,Wunderground v.1.15,2013-01-09 20:15:00,
2013-01-09 15:21:00,38.9,35.1,30.27,West,267,1.0,2.0,86,0.00,,,0.11,Wunderground v.1.15,2013-01-09 20:21:00,
2013-01-09 15:24:00,38.9,35.1,30.27,West,271,1.0,2.0,86,0.00,,,0.11,Wunderground v.1.15,2013-01-09 20:24:00,
2013-01-09 15:25:00,38.9,35.1,30.27,West,272,1.0,2.0,86,0.00,,,0.11,Wunderground v.1.15,2013-01-09 20:25:00,
2013-01-09 15:26:00,38.9,35.1,30.27,West,272,1.0,2.0,86,0.00,,,0.11,Wunderground v.1.15,2013-01-09 20:26:00,
2013-01-09 15:30:00,38.9,34.8,30.27,West,277,0.0,0.0,85,0.00,,,0.11,Wunderground v.1.15,2013-01-09 20:30:00,
2013-01-09 15:32:00,38.9,34.8,30.27,West,276,0.0,6.0,85,0.00,,,0.11,Wunderground v.1.15,2013-01-09 20:32:00,
2013-01-09 15:36:00,39.0,34.9,30.27,West,276,0.0,6.0,85,0.00,,,0.11,Wunderground v.1.15,2013-01-09 20:36:00,
2013-01-09 15:38:00,39.1,34.7,30.27,West,276,0.0,6.0,84,0.00,,,0.11,Wunderground v.1.15,2013-01-09 20:38:00,
2013-01-09 15:39:00,39.2,34.8,30.27,West,276,0.0,6.0,84,0.00,,,0.11,Wunderground v.1.15,2013-01-09 20:39:00,
2013-01-09 15:42:00,39.3,34.9,30.27,West,276,0.0,1.0,84,0.00,,,0.11,Wunderground v.1.15,2013-01-09 20:42:00,
2013-01-09 15:43:00,39.4,35.0,30.26,West,276,0.0,1.0,84,0.00,,,0.11,Wunderground v.1.15,2013-01-09 20:43:00,
2013-01-09 15:45:00,39.5,35.1,30.26,West,276,0.0,1.0,84,0.00,,,0.11,Wunderground v.1.15,2013-01-09 20:45:00,
2013-01-09 15:46:00,39.5,34.8,30.26,West,276,0.0,1.0,83,0.00,,,0.11,Wunderground v.1.15,2013-01-09 20:46:00,
2013-01-09 15:49:00,39.7,35.0,30.27,WNW,284,0.0,1.0,83,0.00,,,0.11,Wunderground v.1.15,2013-01-09 20:49:00,
2013-01-09 15:53:00,39.9,35.2,30.26,WNW,291,0.0,0.0,83,0.00,,,0.11,Wunderground v.1.15,2013-01-09 20:53:00,
2013-01-09 15:55:00,40.0,35.3,30.26,WNW,291,0.0,3.0,83,0.00,,,0.11,Wunderground v.1.15,2013-01-09 20:55:00,
2013-01-09 15:56:00,40.0,35.3,30.27,WNW,288,0.0,3.0,83,0.00,,,0.11,Wunderground v.1.15,2013-01-09 20:56:00,
2013-01-09 15:58:00,40.1,35.4,30.26,WNW,287,1.0,3.0,83,0.00,,,0.11,Wunderground v.1.15,2013-01-09 20:58:00,
2013-01-09 16:00:00,40.1,35.0,30.27,WNW,286,1.0,1.0,82,0.00,,,0.11,Wunderground v.1.15,2013-01-09 21:00:00,
2013-01-09 16:02:00,40.1,35.0,30.26,WNW,286,1.0,3.0,82,0.00,,,0.11,Wunderground v.1.15,2013-01-09 21:02:00,
2013-01-09 16:04:00,40.1,35.0,30.26,WNW,286,1.0,3.0,82,0.00,,,0.11,Wunderground v.1.15,2013-01-09 21:04:00,
2013-01-09 16:06:00,40.0,34.9,30.26,WNW,286,1.0,3.0,82,0.00,,,0.11,Wunderground v.1.15,2013-01-09 21:06:00,
2013-01-09 16:10:00,39.7,34.7,30.26,WNW,286,0.0,0.0,82,0.00,,,0.11,Wunderground v.1.15,2013-01-09 21:10:00,
2013-01-09 16:11:00,39.6,34.6,30.26,WNW,286,0.0,0.0,82,0.00,,,0.11,Wunderground v.1.15,2013-01-09 21:11:00,
2013-01-09 16:16:00,39.5,34.8,30.26,WNW,289,0.0,1.0,83,0.00,,,0.11,Wunderground v.1.15,2013-01-09 21:16:00,
2013-01-09 16:17:00,39.6,34.9,30.26,WNW,287,0.0,1.0,83,0.00,,,0.11,Wunderground v.1.15,2013-01-09 21:17:00,
2013-01-09 16:21:00,39.7,35.3,30.26,WNW,288,1.0,2.0,84,0.00,,,0.11,Wunderground v.1.15,2013-01-09 21:21:00,
2013-01-09 16:23:00,39.8,35.4,30.26,WNW,287,1.0,2.0,84,0.00,,,0.12,Wunderground v.1.15,2013-01-09 21:23:00,
2013-01-09 16:24:00,39.9,35.5,30.26,WNW,287,2.0,4.0,84,0.00,,,0.12,Wunderground v.1.15,2013-01-09 21:24:00,
2013-01-09 16:25:00,40.0,35.9,30.26,WNW,289,2.0,4.0,85,0.00,,,0.12,Wunderground v.1.15,2013-01-09 21:25:00,
2013-01-09 16:30:00,40.8,36.6,30.26,WNW,288,3.0,3.0,85,0.00,,,0.12,Wunderground v.1.15,2013-01-09 21:30:00,
2013-01-09 16:31:00,40.9,36.7,30.26,WNW,286,3.0,4.0,85,0.00,,,0.12,Wunderground v.1.15,2013-01-09 21:31:00,
2013-01-09 16:32:00,41.0,36.5,30.27,WNW,286,3.0,4.0,84,0.00,,,0.12,Wunderground v.1.15,2013-01-09 21:32:00,
2013-01-09 16:34:00,41.1,36.6,30.27,WNW,284,3.0,4.0,84,0.00,,,0.12,Wunderground v.1.15,2013-01-09 21:34:00,
2013-01-09 16:38:00,41.4,36.9,30.26,WNW,288,3.0,4.0,84,0.00,,,0.12,Wunderground v.1.15,2013-01-09 21:38:00,
2013-01-09 16:39:00,41.4,36.9,30.26,WNW,292,3.0,4.0,84,0.00,,,0.12,Wunderground v.1.15,2013-01-09 21:39:00,
2013-01-09 16:40:00,41.5,37.0,30.26,West,275,3.0,4.0,84,0.00,,,0.12,Wunderground v.1.15,2013-01-09 21:40:00,
2013-01-09 16:41:00,41.6,37.1,30.26,WNW,284,3.0,4.0,84,0.00,,,0.12,Wunderground v.1.15,2013-01-09 21:41:00,
2013-01-09 16:44:00,41.7,36.9,30.27,West,277,3.0,4.0,83,0.00,,,0.12,Wunderground v.1.15,2013-01-09 21:44:00,
2013-01-09 16:47:00,41.8,37.3,30.27,WNW,283,4.0,4.0,84,0.00,,,0.12,Wunderground v.1.15,2013-01-09 21:47:00,
2013-01-09 16:49:00,41.9,37.4,30.27,West,271,4.0,4.0,84,0.00,,,0.12,Wunderground v.1.15,2013-01-09 21:49:00,
2013-01-09 16:52:00,42.0,37.2,30.27,West,280,4.0,5.0,83,0.00,,,0.12,Wunderground v.1.15,2013-01-09 21:52:00,
2013-01-09 16:53:00,41.9,37.1,30.27,West,281,4.0,5.0,83,0.00,,,0.12,Wunderground v.1.15,2013-01-09 21:53:00,
2013-01-09 16:56:00,41.8,37.3,30.27,WNW,284,4.0,5.0,84,0.00,,,0.12,Wunderground v.1.15,2013-01-09 21:56:00,
2013-01-09 16:57:00,41.8,37.3,30.27,WNW,285,4.0,5.0,84,0.00,,,0.12,Wunderground v.1.15,2013-01-09 21:57:00,
2013-01-09 17:00:00,41.7,37.2,30.27,WNW,286,3.0,3.0,84,0.00,,,0.12,Wunderground v.1.15,2013-01-09 22:00:00,
2013-01-09 17:02:00,41.7,37.2,30.27,West,281,3.0,4.0,84,0.00,,,0.12,Wunderground v.1.15,2013-01-09 22:02:00,
2013-01-09 17:03:00,41.7,37.2,30.27,WNW,282,3.0,4.0,84,0.00,,,0.12,Wunderground v.1.15,2013-01-09 22:03:00,
2013-01-09 17:05:00,41.7,37.2,30.27,West,281,3.0,4.0,84,0.00,,,0.12,Wunderground v.1.15,2013-01-09 22:05:00,
2013-01-09 17:06:00,41.7,37.2,30.27,WNW,282,3.0,4.0,84,0.00,,,0.12,Wunderground v.1.15,2013-01-09 22:06:00,
2013-01-09 17:11:00,41.7,37.2,30.27,WNW,288,3.0,4.0,84,0.00,,,0.12,Wunderground v.1.15,2013-01-09 22:11:00,
2013-01-09 17:12:00,41.7,37.2,30.27,WNW,286,3.0,4.0,84,0.00,,,0.12,Wunderground v.1.15,2013-01-09 22:12:00,
2013-01-09 17:13:00,41.7,37.2,30.27,WNW,286,4.0,4.0,84,0.00,,,0.12,Wunderground v.1.15,2013-01-09 22:13:00,
2013-01-09 17:16:00,41.8,37.3,30.27,WNW,290,4.0,5.0,84,0.00,,,0.12,Wunderground v.1.15,2013-01-09 22:16:00,
2013-01-09 17:18:00,41.9,37.7,30.27,WNW,302,4.0,5.0,85,0.00,,,0.12,Wunderground v.1.15,2013-01-09 22:18:00,
2013-01-09 17:21:00,42.2,38.0,30.27,WNW,283,4.0,5.0,85,0.00,,,0.12,Wunderground v.1.15,2013-01-09 22:21:00,
2013-01-09 17:22:00,42.2,38.0,30.27,WNW,291,4.0,5.0,85,0.00,,,0.12,Wunderground v.1.15,2013-01-09 22:22:00,
2013-01-09 17:23:00,42.3,38.1,30.27,West,272,4.0,5.0,85,0.00,,,0.12,Wunderground v.1.15,2013-01-09 22:23:00,
2013-01-09 17:27:00,42.5,38.0,30.27,WNW,287,4.0,5.0,84,0.00,,,0.12,Wunderground v.1.15,2013-01-09 22:27:00,
2013-01-09 17:28:00,42.5,38.0,30.27,WNW,296,4.0,5.0,84,0.00,,,0.12,Wunderground v.1.15,2013-01-09 22:28:00,
2013-01-09 17:29:00,42.5,38.3,30.27,WNW,286,4.0,5.0,85,0.00,,,0.12,Wunderground v.1.15,2013-01-09 22:29:00,
2013-01-09 17:30:00,42.5,38.3,30.27,WNW,288,4.0,4.0,85,0.00,,,0.12,Wunderground v.1.15,2013-01-09 22:30:00,
2013-01-09 17:32:00,42.7,38.5,30.27,West,271,5.0,6.0,85,0.00,,,0.12,Wunderground v.1.15,2013-01-09 22:32:00,
2013-01-09 17:34:00,42.8,38.3,30.27,WNW,283,5.0,6.0,84,0.00,,,0.12,Wunderground v.1.15,2013-01-09 22:34:00,
2013-01-09 17:35:00,42.8,38.3,30.27,WNW,292,4.0,6.0,84,0.00,,,0.12,Wunderground v.1.15,2013-01-09 22:35:00,
2013-01-09 17:40:00,42.7,38.5,30.27,WNW,296,4.0,5.0,85,0.00,,,0.12,Wunderground v.1.15,2013-01-09 22:40:00,
2013-01-09 17:41:00,42.7,38.5,30.27,WNW,298,4.0,5.0,85,0.00,,,0.12,Wunderground v.1.15,2013-01-09 22:41:00,
2013-01-09 17:42:00,42.7,38.5,30.27,WNW,292,4.0,5.0,85,0.00,,,0.12,Wunderground v.1.15,2013-01-09 22:42:00,
2013-01-09 17:44:00,42.8,38.9,30.27,West,279,4.0,5.0,86,0.00,,,0.12,Wunderground v.1.15,2013-01-09 22:44:00,
2013-01-09 17:45:00,42.9,39.0,30.27,West,267,4.0,6.0,86,0.00,,,0.12,Wunderground v.1.15,2013-01-09 22:45:00,
2013-01-09 17:48:00,43.1,39.2,30.27,West,279,5.0,6.0,86,0.00,,,0.12,Wunderground v.1.15,2013-01-09 22:48:00,
2013-01-09 17:49:00,43.1,39.2,30.27,WNW,286,4.0,6.0,86,0.00,,,0.12,Wunderground v.1.15,2013-01-09 22:49:00,
2013-01-09 17:51:00,43.3,39.7,30.27,WNW,286,5.0,6.0,87,0.00,,,0.12,Wunderground v.1.15,2013-01-09 22:51:00,
2013-01-09 17:52:00,43.4,39.8,30.27,WNW,301,5.0,6.0,87,0.00,,,0.12,Wunderground v.1.15,2013-01-09 22:52:00,
2013-01-09 17:55:00,43.8,39.9,30.27,WNW,291,5.0,6.0,86,0.00,,,0.13,Wunderground v.1.15,2013-01-09 22:55:00,
2013-01-09 17:57:00,43.9,40.0,30.27,NW,304,5.0,6.0,86,0.00,,,0.13,Wunderground v.1.15,2013-01-09 22:57:00,
2013-01-09 17:58:00,44.0,40.1,30.28,WNW,290,6.0,6.0,86,0.00,,,0.13,Wunderground v.1.15,2013-01-09 22:58:00,
2013-01-09 18:04:00,44.5,40.9,30.28,WNW,296,6.0,9.0,87,0.00,,,0.13,Wunderground v.1.15,2013-01-09 23:04:00,
2013-01-09 18:08:00,44.9,41.0,30.29,WNW,286,7.0,9.0,86,0.00,,,0.13,Wunderground v.1.15,2013-01-09 23:08:00,
2013-01-09 18:09:00,44.9,41.3,30.29,NW,323,7.0,9.0,87,0.00,,,0.13,Wunderground v.1.15,2013-01-09 23:09:00,
2013-01-09 18:11:00,45.0,41.4,30.29,West,280,7.0,8.0,87,0.00,,,0.13,Wunderground v.1.15,2013-01-09 23:11:00,
2013-01-09 18:12:00,45.2,41.6,30.29,WNW,285,7.0,9.0,87,0.00,,,0.13,Wunderground v.1.15,2013-01-09 23:12:00,
2013-01-09 18:15:00,45.3,41.4,30.30,NW,316,7.0,15.0,86,0.00,,,0.13,Wunderground v.1.15,2013-01-09 23:15:00,
2013-01-09 18:18:00,45.4,41.2,30.30,WNW,300,8.0,15.0,85,0.00,,,0.13,Wunderground v.1.15,2013-01-09 23:18:00,
2013-01-09 18:20:00,45.4,41.2,30.30,West,267,8.0,9.0,85,0.00,,,0.13,Wunderground v.1.15,2013-01-09 23:20:00,
2013-01-09 18:21:00,45.5,41.3,30.30,West,272,8.0,9.0,85,0.00,,,0.13,Wunderground v.1.15,2013-01-09 23:21:00,
2013-01-09 18:23:00,45.5,41.3,30.30,WNW,296,8.0,13.0,85,0.00,,,0.13,Wunderground v.1.15,2013-01-09 23:23:00,
2013-01-09 18:24:00,45.5,40.9,30.30,WNW,283,8.0,13.0,84,0.00,,,0.13,Wunderground v.1.15,2013-01-09 23:24:00,
2013-01-09 18:29:00,45.6,41.0,30.30,WNW,287,8.0,13.0,84,0.00,,,0.13,Wunderground v.1.15,2013-01-09 23:29:00,
2013-01-09 18:30:00,45.5,40.9,30.30,WNW,290,8.0,8.0,84,0.00,,,0.13,Wunderground v.1.15,2013-01-09 23:30:00,
2013-01-09 18:31:00,45.4,40.8,30.30,West,281,8.0,11.0,84,0.00,,,0.14,Wunderground v.1.15,2013-01-09 23:31:00,
2013-01-09 18:35:00,45.5,40.6,30.31,WNW,291,8.0,12.0,83,0.00,,,0.14,Wunderground v.1.15,2013-01-09 23:35:00,
2013-01-09 18:36:00,45.5,40.6,30.31,WNW,292,8.0,12.0,83,0.00,,,0.14,Wunderground v.1.15,2013-01-09 23:36:00,
2013-01-09 18:41:00,45.0,40.1,30.31,NW,310,8.0,9.0,83,0.00,,,0.14,Wunderground v.1.15,2013-01-09 23:41:00,
2013-01-09 18:42:00,45.0,40.5,30.30,WNW,287,8.0,9.0,84,0.00,,,0.14,Wunderground v.1.15,2013-01-09 23:42:00,
2013-01-09 18:44:00,45.1,40.2,30.30,WNW,290,8.0,12.0,83,0.00,,,0.14,Wunderground v.1.15,2013-01-09 23:44:00,
2013-01-09 18:48:00,45.3,40.1,30.31,West,264,9.0,12.0,82,0.00,,,0.14,Wunderground v.1.15,2013-01-09 23:48:00,
2013-01-09 18:49:00,45.3,40.1,30.31,North,5,9.0,12.0,82,0.00,,,0.14,Wunderground v.1.15,2013-01-09 23:49:00,
2013-01-09 18:50:00,45.3,40.1,30.30,WNW,290,9.0,9.0,82,0.00,,,0.14,Wunderground v.1.15,2013-01-09 23:50:00,
2013-01-09 18:54:00,45.3,39.8,30.31,WNW,290,9.0,14.0,81,0.00,,,0.14,Wunderground v.1.15,2013-01-09 23:54:00,
2013-01-09 18:55:00,45.3,39.8,30.31,WNW,289,9.0,14.0,81,0.00,,,0.14,Wunderground v.1.15,2013-01-09 23:55:00,
2013-01-09 18:56:00,45.3,39.8,30.31,WNW,302,9.0,14.0,81,0.00,,,0.14,Wunderground v.1.15,2013-01-09 23:56:00,
2013-01-09 19:00:00,45.1,39.6,30.31,WNW,286,9.0,9.0,81,0.00,,,0.14,Wunderground v.1.15,2013-01-10 00:00:00,
2013-01-09 19:02:00,45.3,39.8,30.30,NW,307,9.0,17.0,81,0.00,,,0.14,Wunderground v.1.15,2013-01-10 00:02:00,
2013-01-09 19:03:00,45.3,39.8,30.31,WNW,287,9.0,17.0,81,0.00,,,0.14,Wunderground v.1.15,2013-01-10 00:03:00,
2013-01-09 19:07:00,45.5,39.7,30.31,West,272,10.0,17.0,80,0.00,,,0.14,Wunderground v.1.15,2013-01-10 00:07:00,
2013-01-09 19:08:00,45.3,39.2,30.31,WNW,300,10.0,17.0,79,0.00,,,0.14,Wunderground v.1.15,2013-01-10 00:08:00,
2013-01-09 19:11:00,45.2,39.1,30.31,WNW,286,10.0,12.0,79,0.00,,,0.14,Wunderground v.1.15,2013-01-10 00:11:00,
2013-01-09 19:13:00,45.3,39.2,30.31,WNW,299,10.0,12.0,79,0.00,,,0.14,Wunderground v.1.15,2013-01-10 00:13:00,
2013-01-09 19:16:00,45.3,39.2,30.31,WNW,291,10.0,12.0,79,0.00,,,0.14,Wunderground v.1.15,2013-01-10 00:16:00,
2013-01-09 19:18:00,45.4,38.9,30.31,WNW,297,10.0,12.0,78,0.00,,,0.14,Wunderground v.1.15,2013-01-10 00:18:00,
2013-01-09 19:20:00,45.4,38.9,30.31,WNW,290,10.0,11.0,78,0.00,,,0.14,Wunderground v.1.15,2013-01-10 00:20:00,
2013-01-09 19:21:00,45.4,38.9,30.31,West,279,10.0,11.0,78,0.00,,,0.14,Wunderground v.1.15,2013-01-10 00:21:00,
2013-01-09 19:23:00,45.2,38.4,30.30,West,280,10.0,11.0,77,0.00,,,0.14,Wunderground v.1.15,2013-01-10 00:23:00,
2013-01-09 19:26:00,45.4,38.6,30.30,WNW,286,10.0,15.0,77,0.00,,,0.14,Wunderground v.1.15,2013-01-10 00:26:00,
2013-01-09 19:27:00,45.3,38.5,30.30,NW,308,10.0,15.0,77,0.00,,,0.14,Wunderground v.1.15,2013-01-10 00:27:00,
2013-01-09 19:29:00,45.2,38.4,30.31,WNW,294,10.0,15.0,77,0.00,,,0.14,Wunderground v.1.15,2013-01-10 00:29:00,
2013-01-09 19:33:00,45.0,38.2,30.30,WNW,285,10.0,27.0,77,0.00,,,0.14,Wunderground v.1.15,2013-01-10 00:33:00,
2013-01-09 19:34:00,45.0,38.2,30.30,West,277,10.0,27.0,77,0.00,,,0.14,Wunderground v.1.15,2013-01-10 00:34:00,
2013-01-09 19:35:00,44.8,38.0,30.30,WNW,303,9.0,27.0,77,0.00,,,0.14,Wunderground v.1.15,2013-01-10 00:35:00,
2013-01-09 19:36:00,44.6,38.2,30.30,WNW,294,9.0,27.0,78,0.00,,,0.14,Wunderground v.1.15,2013-01-10 00:36:00,
2013-01-09 19:41:00,44.4,38.0,30.31,WNW,302,8.0,8.0,78,0.00,,,0.14,Wunderground v.1.15,2013-01-10 00:41:00,
2013-01-09 19:42:00,44.5,38.1,30.30,WSW,253,9.0,9.0,78,0.00,,,0.14,Wunderground v.1.15,2013-01-10 00:42:00,
2013-01-09 19:45:00,44.5,37.7,30.30,WNW,282,9.0,10.0,77,0.00,,,0.14,Wunderground v.1.15,2013-01-10 00:45:00,
2013-01-09 19:47:00,44.5,37.7,30.31,West,271,9.0,14.0,77,0.00,,,0.14,Wunderground v.1.15,2013-01-10 00:47:00,
2013-01-09 19:48:00,44.6,37.8,30.31,West,279,9.0,14.0,77,0.00,,,0.14,Wunderground v.1.15,2013-01-10 00:48:00,
2013-01-09 19:50:00,44.4,37.6,30.31,WNW,298,9.0,9.0,77,0.00,,,0.14,Wunderground v.1.15,2013-01-10 00:50:00,
2013-01-09 19:54:00,44.2,37.1,30.31,West,280,9.0,13.0,76,0.00,,,0.14,Wunderground v.1.15,2013-01-10 00:54:00,
2013-01-09 19:55:00,44.2,37.4,30.31,WNW,293,9.0,13.0,77,0.00,,,0.14,Wunderground v.1.15,2013-01-10 00:55:00,
2013-01-09 19:56:00,44.1,37.3,30.31,WNW,298,9.0,13.0,77,0.00,,,0.14,Wunderground v.1.15,2013-01-10 00:56:00,
2013-01-09 19:57:00,44.1,37.3,30.31,WNW,286,9.0,13.0,77,0.00,,,0.14,Wunderground v.1.15,2013-01-10 00:57:00,
2013-01-09 20:01:00,44.2,37.1,30.30,West,281,9.0,23.0,76,0.00,,,0.14,Wunderground v.1.15,2013-01-10 01:01:00,
2013-01-09 20:03:00,44.3,36.9,30.31,WNW,296,9.0,23.0,75,0.00,,,0.15,Wunderground v.1.15,2013-01-10 01:03:00,
2013-01-09 20:07:00,44.4,36.6,30.31,WNW,290,9.0,23.0,74,0.00,,,0.15,Wunderground v.1.15,2013-01-10 01:07:00,
2013-01-09 20:08:00,44.4,36.6,30.30,NNW,344,9.0,23.0,74,0.00,,,0.15,Wunderground v.1.15,2013-01-10 01:08:00,
2013-01-09 20:10:00,44.2,36.4,30.30,WNW,302,9.0,9.0,74,0.00,,,0.15,Wunderground v.1.15,2013-01-10 01:10:00,
2013-01-09 20:13:00,44.4,36.6,30.30,West,281,9.0,11.0,74,0.00,,,0.15,Wunderground v.1.15,2013-01-10 01:13:00,
2013-01-09 20:14:00,44.4,36.6,30.30,West,269,9.0,13.0,74,0.00,,,0.15,Wunderground v.1.15,2013-01-10 01:14:00,
2013-01-09 20:19:00,44.6,36.1,30.30,WNW,296,10.0,13.0,72,0.00,,,0.15,Wunderground v.1.15,2013-01-10 01:19:00,
2013-01-09 20:20:00,44.6,35.8,30.30,WNW,284,10.0,10.0,71,0.00,,,0.15,Wunderground v.1.15,2013-01-10 01:20:00,
2013-01-09 20:22:00,44.5,36.0,30.31,WNW,303,10.0,12.0,72,0.00,,,0.15,Wunderground v.1.15,2013-01-10 01:22:00,
2013-01-09 20:25:00,44.5,36.0,30.31,West,278,10.0,12.0,72,0.00,,,0.15,Wunderground v.1.15,2013-01-10 01:25:00,
2013-01-09 20:27:00,44.5,36.0,30.30,WNW,292,10.0,12.0,72,0.00,,,0.15,Wunderground v.1.15,2013-01-10 01:27:00,
2013-01-09 20:30:00,44.3,35.8,30.31,WNW,285,9.0,12.0,72,0.00,,,0.15,Wunderground v.1.15,2013-01-10 01:30:00,
2013-01-09 20:32:00,44.3,35.8,30.31,WNW,292,9.0,17.0,72,0.00,,,0.15,Wunderground v.1.15,2013-01-10 01:32:00,
2013-01-09 20:34:00,44.2,35.4,30.31,NW,311,9.0,17.0,71,0.00,,,0.15,Wunderground v.1.15,2013-01-10 01:34:00,
2013-01-09 20:36:00,44.2,35.4,30.31,West,279,9.0,17.0,71,0.00,,,0.15,Wunderground v.1.15,2013-01-10 01:36:00,
2013-01-09 20:40:00,44.0,35.6,30.31,North,360,9.0,9.0,72,0.00,,,0.15,Wunderground v.1.15,2013-01-10 01:40:00,
2013-01-09 20:41:00,44.0,35.2,30.31,WNW,291,9.0,9.0,71,0.00,,,0.15,Wunderground v.1.15,2013-01-10 01:41:00,
2013-01-09 20:43:00,44.1,34.9,30.32,WNW,296,10.0,10.0,70,0.00,,,0.15,Wunderground v.1.15,2013-01-10 01:43:00,
2013-01-09 20:44:00,44.1,34.9,30.32,West,269,10.0,10.0,70,0.00,,,0.15,Wunderground v.1.15,2013-01-10 01:44:00,
2013-01-09 20:48:00,44.3,35.1,30.32,West,281,10.0,14.0,70,0.00,,,0.15,Wunderground v.1.15,2013-01-10 01:48:00,
2013-01-09 20:49:00,44.3,35.1,30.32,NW,306,10.0,14.0,70,0.00,,,0.15,Wunderground v.1.15,2013-01-10 01:49:00,
2013-01-09 20:51:00,44.3,35.1,30.32,West,267,10.0,12.0,70,0.00,,,0.15,Wunderground v.1.15,2013-01-10 01:51:00,
2013-01-09 20:52:00,44.3,34.8,30.32,WNW,291,10.0,12.0,69,0.00,,,0.15,Wunderground v.1.15,2013-01-10 01:52:00,
2013-01-09 20:55:00,44.1,34.9,30.32,West,275,10.0,15.0,70,0.00,,,0.15,Wunderground v.1.15,2013-01-10 01:55:00,
2013-01-09 20:57:00,44.1,34.6,30.32,North,360,10.0,15.0,69,0.00,,,0.15,Wunderground v.1.15,2013-01-10 01:57:00,
2013-01-09 20:59:00,44.2,34.7,30.32,WNW,295,9.0,15.0,69,0.00,,,0.15,Wunderground v.1.15,2013-01-10 01:59:00,
2013-01-09 21:00:00,44.2,34.7,30.32,WNW,300,9.0,9.0,69,0.00,,,0.15,Wunderground v.1.15,2013-01-10 02:00:00,
2013-01-09 21:02:00,44.0,34.5,30.33,WNW,290,9.0,23.0,69,0.00,,,0.15,Wunderground v.1.15,2013-01-10 02:02:00,
2013-01-09 21:04:00,43.9,34.4,30.32,WNW,302,9.0,23.0,69,0.00,,,0.15,Wunderground v.1.15,2013-01-10 02:04:00,
2013-01-09 21:08:00,43.7,34.2,30.33,West,259,8.0,23.0,69,0.00,,,0.15,Wunderground v.1.15,2013-01-10 02:08:00,
2013-01-09 21:11:00,43.8,34.3,30.33,West,277,9.0,9.0,69,0.00,,,0.15,Wunderground v.1.15,2013-01-10 02:11:00,
2013-01-09 21:14:00,43.8,34.3,30.33,WNW,299,8.0,12.0,69,0.00,,,0.15,Wunderground v.1.15,2013-01-10 02:14:00,
2013-01-09 21:16:00,43.8,34.3,30.33,West,268,9.0,12.0,69,0.00,,,0.15,Wunderground v.1.15,2013-01-10 02:16:00,
2013-01-09 21:21:00,43.8,34.3,30.33,West,281,8.0,10.0,69,0.00,,,0.15,Wunderground v.1.15,2013-01-10 02:21:00,
2013-01-09 21:22:00,43.7,34.2,30.34,NW,310,8.0,10.0,69,0.00,,,0.15,Wunderground v.1.15,2013-01-10 02:22:00,
2013-01-09 21:23:00,43.7,34.2,30.34,West,274,8.0,10.0,69,0.00,,,0.15,Wunderground v.1.15,2013-01-10 02:23:00,
2013-01-09 21:24:00,43.6,34.1,30.34,West,280,8.0,10.0,69,0.00,,,0.15,Wunderground v.1.15,2013-01-10 02:24:00,
2013-01-09 21:28:00,43.5,34.0,30.34,West,275,7.0,10.0,69,0.00,,,0.15,Wunderground v.1.15,2013-01-10 02:28:00,
2013-01-09 21:29:00,43.5,34.0,30.34,WNW,294,7.0,13.0,69,0.00,,,0.15,Wunderground v.1.15,2013-01-10 02:29:00,
2013-01-09 21:30:00,43.5,34.0,30.34,NW,308,7.0,7.0,69,0.00,,,0.15,Wunderground v.1.15,2013-01-10 02:30:00,
2013-01-09 21:34:00,43.7,33.8,30.34,NW,307,7.0,20.0,68,0.00,,,0.15,Wunderground v.1.15,2013-01-10 02:34:00,
2013-01-09 21:35:00,43.7,33.8,30.34,North,360,7.0,20.0,68,0.00,,,0.15,Wunderground v.1.15,2013-01-10 02:35:00,
2013-01-09 21:36:00,43.7,33.8,30.34,WNW,295,7.0,20.0,68,0.00,,,0.15,Wunderground v.1.15,2013-01-10 02:36:00,
2013-01-09 21:37:00,43.8,33.9,30.34,WNW,294,8.0,20.0,68,0.00,,,0.15,Wunderground v.1.15,2013-01-10 02:37:00,
2013-01-09 21:40:00,43.9,34.0,30.34,WNW,289,8.0,8.0,68,0.00,,,0.15,Wunderground v.1.15,2013-01-10 02:40:00,
2013-01-09 21:42:00,43.8,33.9,30.33,WNW,301,8.0,16.0,68,0.00,,,0.15,Wunderground v.1.15,2013-01-10 02:42:00,
2013-01-09 21:43:00,43.8,33.9,30.34,West,263,8.0,16.0,68,0.00,,,0.15,Wunderground v.1.15,2013-01-10 02:43:00,
2013-01-09 21:46:00,43.6,33.7,30.34,West,277,8.0,16.0,68,0.00,,,0.15,Wunderground v.1.15,2013-01-10 02:46:00,
2013-01-09 21:48:00,43.6,33.7,30.34,NW,307,8.0,16.0,68,0.00,,,0.15,Wunderground v.1.15,2013-01-10 02:48:00,
2013-01-09 21:49:00,43.5,33.6,30.34,WNW,292,8.0,16.0,68,0.00,,,0.15,Wunderground v.1.15,2013-01-10 02:49:00,
2013-01-09 21:54:00,43.5,33.6,30.34,WNW,302,7.0,8.0,68,0.00,,,0.15,Wunderground v.1.15,2013-01-10 02:54:00,
2013-01-09 21:55:00,43.3,33.4,30.34,WNW,284,7.0,8.0,68,0.00,,,0.15,Wunderground v.1.15,2013-01-10 02:55:00,
2013-01-09 21:56:00,43.4,33.5,30.34,NW,309,7.0,13.0,68,0.00,,,0.15,Wunderground v.1.15,2013-01-10 02:56:00,
2013-01-09 22:02:00,43.4,33.5,30.34,West,263,7.0,18.0,68,0.00,,,0.15,Wunderground v.1.15,2013-01-10 03:02:00,
2013-01-09 22:03:00,43.4,33.5,30.35,West,281,7.0,18.0,68,0.00,,,0.15,Wunderground v.1.15,2013-01-10 03:03:00,
2013-01-09 22:06:00,43.2,33.3,30.34,NW,317,7.0,18.0,68,0.00,,,0.15,Wunderground v.1.15,2013-01-10 03:06:00,
2013-01-09 22:10:00,43.0,33.5,30.35,NW,304,6.0,8.0,69,0.00,,,0.15,Wunderground v.1.15,2013-01-10 03:10:00,
2013-01-09 22:11:00,43.0,33.2,30.35,WNW,286,6.0,8.0,68,0.00,,,0.15,Wunderground v.1.15,2013-01-10 03:11:00,
2013-01-09 22:12:00,43.0,33.2,30.35,WNW,290,6.0,9.0,68,0.00,,,0.15,Wunderground v.1.15,2013-01-10 03:12:00,
2013-01-09 22:13:00,43.0,33.2,30.35,West,276,6.0,9.0,68,0.00,,,0.15,Wunderground v.1.15,2013-01-10 03:13:00,
2013-01-09 22:18:00,42.8,33.3,30.35,West,276,6.0,9.0,69,0.00,,,0.16,Wunderground v.1.15,2013-01-10 03:18:00,
2013-01-09 22:19:00,42.7,33.2,30.35,WNW,282,6.0,9.0,69,0.00,,,0.16,Wunderground v.1.15,2013-01-10 03:19:00,
2013-01-09 22:22:00,42.6,33.1,30.35,WNW,303,6.0,8.0,69,0.00,,,0.16,Wunderground v.1.15,2013-01-10 03:22:00,
2013-01-09 22:23:00,42.6,33.1,30.35,West,269,7.0,8.0,69,0.00,,,0.16,Wunderground v.1.15,2013-01-10 03:23:00,
2013-01-09 22:26:00,42.4,32.9,30.35,WNW,295,7.0,11.0,69,0.00,,,0.16,Wunderground v.1.15,2013-01-10 03:26:00,
2013-01-09 22:27:00,42.4,32.9,30.35,WNW,299,7.0,11.0,69,0.00,,,0.16,Wunderground v.1.15,2013-01-10 03:27:00,
2013-01-09 22:28:00,42.4,32.9,30.35,WNW,291,7.0,11.0,69,0.00,,,0.16,Wunderground v.1.15,2013-01-10 03:28:00,
2013-01-09 22:29:00,42.4,32.9,30.35,West,280,7.0,11.0,69,0.00,,,0.16,Wunderground v.1.15,2013-01-10 03:29:00,
2013-01-09 22:32:00,42.6,32.8,30.34,WNW,291,7.0,20.0,68,0.00,,,0.16,Wunderground v.1.15,2013-01-10 03:32:00,
2013-01-09 22:34:00,42.7,32.9,30.34,WNW,290,8.0,20.0,68,0.00,,,0.16,Wunderground v.1.15,2013-01-10 03:34:00,
2013-01-09 22:37:00,42.9,32.7,30.35,WNW,292,8.0,20.0,67,0.00,,,0.16,Wunderground v.1.15,2013-01-10 03:37:00,
2013-01-09 22:39:00,42.9,32.7,30.34,WNW,282,9.0,20.0,67,0.00,,,0.16,Wunderground v.1.15,2013-01-10 03:39:00,
2013-01-09 22:40:00,42.9,33.1,30.34,West,279,9.0,9.0,68,0.00,,,0.16,Wunderground v.1.15,2013-01-10 03:40:00,
2013-01-09 22:41:00,42.9,32.7,30.34,WNW,294,9.0,9.0,67,0.00,,,0.16,Wunderground v.1.15,2013-01-10 03:41:00,
2013-01-09 22:44:00,42.8,32.6,30.35,WNW,291,9.0,9.0,67,0.00,,,0.16,Wunderground v.1.15,2013-01-10 03:44:00,
2013-01-09 22:47:00,42.7,32.5,30.35,NW,306,8.0,10.0,67,0.00,,,0.16,Wunderground v.1.15,2013-01-10 03:47:00,
2013-01-09 22:50:00,42.8,32.6,30.35,West,271,9.0,10.0,67,0.00,,,0.16,Wunderground v.1.15,2013-01-10 03:50:00,
2013-01-09 22:53:00,42.9,32.7,30.35,NW,309,9.0,16.0,67,0.00,,,0.16,Wunderground v.1.15,2013-01-10 03:53:00,
2013-01-09 22:57:00,42.8,32.6,30.35,West,265,9.0,16.0,67,0.00,,,0.16,Wunderground v.1.15,2013-01-10 03:57:00,
2013-01-09 22:58:00,42.8,32.6,30.35,West,280,8.0,16.0,67,0.00,,,0.16,Wunderground v.1.15,2013-01-10 03:58:00,
2013-01-09 22:59:00,42.8,32.6,30.35,WNW,294,8.0,16.0,67,0.00,,,0.16,Wunderground v.1.15,2013-01-10 03:59:00,
2013-01-09 23:02:00,42.7,32.5,30.35,West,281,8.0,13.0,67,0.00,,,0.16,Wunderground v.1.15,2013-01-10 04:02:00,
2013-01-09 23:04:00,42.6,32.4,30.35,West,281,8.0,13.0,67,0.00,,,0.16,Wunderground v.1.15,2013-01-10 04:04:00,
2013-01-09 23:08:00,42.4,32.6,30.35,WNW,298,8.0,13.0,68,0.00,,,0.16,Wunderground v.1.15,2013-01-10 04:08:00,
2013-01-09 23:09:00,42.4,32.6,30.35,WSW,253,8.0,13.0,68,0.00,,,0.16,Wunderground v.1.15,2013-01-10 04:09:00,
2013-01-09 23:11:00,42.1,32.3,30.35,WNW,285,8.0,10.0,68,0.00,,,0.16,Wunderground v.1.15,2013-01-10 04:11:00,
2013-01-09 23:13:00,42.1,32.3,30.35,WNW,301,7.0,10.0,68,0.00,,,0.16,Wunderground v.1.15,2013-01-10 04:13:00,
2013-01-09 23:14:00,42.0,32.2,30.35,WNW,303,7.0,15.0,68,0.00,,,0.16,Wunderground v.1.15,2013-01-10 04:14:00,
2013-01-09 23:15:00,42.0,32.2,30.35,West,280,8.0,15.0,68,0.00,,,0.16,Wunderground v.1.15,2013-01-10 04:15:00,
2013-01-09 23:21:00,42.2,32.4,30.36,West,266,8.0,13.0,68,0.00,,,0.16,Wunderground v.1.15,2013-01-10 04:21:00,
2013-01-09 23:22:00,42.2,32.4,30.36,WNW,290,8.0,13.0,68,0.00,,,0.16,Wunderground v.1.15,2013-01-10 04:22:00,
2013-01-09 23:26:00,42.1,32.3,30.36,NW,311,8.0,13.0,68,0.00,,,0.16,Wunderground v.1.15,2013-01-10 04:26:00,
2013-01-09 23:28:00,41.9,32.1,30.36,NW,315,8.0,13.0,68,0.00,,,0.16,Wunderground v.1.15,2013-01-10 04:28:00,
2013-01-09 23:29:00,41.9,32.1,30.36,WNW,296,8.0,13.0,68,0.00,,,0.16,Wunderground v.1.15,2013-01-10 04:29:00,
2013-01-09 23:30:00,41.9,32.1,30.36,WNW,284,7.0,7.0,68,0.00,,,0.16,Wunderground v.1.15,2013-01-10 04:30:00,
2013-01-09 23:33:00,41.8,32.0,30.36,West,274,7.0,21.0,68,0.00,,,0.16,Wunderground v.1.15,2013-01-10 04:33:00,
2013-01-09 23:34:00,41.8,32.0,30.36,WNW,282,7.0,21.0,68,0.00,,,0.16,Wunderground v.1.15,2013-01-10 04:34:00,
2013-01-09 23:36:00,41.8,31.6,30.36,West,280,7.0,21.0,67,0.00,,,0.16,Wunderground v.1.15,2013-01-10 04:36:00,
2013-01-09 23:39:00,41.9,31.7,30.36,WNW,289,7.0,21.0,67,0.00,,,0.16,Wunderground v.1.15,2013-01-10 04:39:00,
2013-01-09 23:42:00,41.8,32.0,30.37,WNW,284,7.0,8.0,68,0.00,,,0.16,Wunderground v.1.15,2013-01-10 04:42:00,
2013-01-09 23:45:00,41.9,31.7,30.37,West,276,7.0,9.0,67,0.00,,,0.16,Wunderground v.1.15,2013-01-10 04:45:00,
2013-01-09 23:47:00,41.8,32.0,30.37,West,267,7.0,9.0,68,0.00,,,0.16,Wunderground v.1.15,2013-01-10 04:47:00,
2013-01-09 23:48:00,41.8,32.0,30.37,West,268,7.0,9.0,68,0.00,,,0.16,Wunderground v.1.15,2013-01-10 04:48:00,
2013-01-09 23:53:00,41.7,31.5,30.37,WNW,290,7.0,8.0,67,0.00,,,0.16,Wunderground v.1.15,2013-01-10 04:53:00,
2013-01-09 23:55:00,41.7,31.9,30.37,WNW,287,7.0,8.0,68,0.00,,,0.16,Wunderground v.1.15,2013-01-10 04:55:00,
2013-01-09 23:57:00,41.5,31.7,30.37,WNW,284,7.0,8.0,68,0.00,,,0.16,Wunderground v.1.15,2013-01-10 04:57:00,
2013-01-09 23:58:00,41.3,31.5,30.37,WNW,284,7.0,11.0,68,0.00,,,0.16,Wunderground v.1.15,2013-01-10 04:58:00,